<?xml version="1.0" encoding="UTF-8" standalone="no" ?>
<gpx xmlns="http://www.topografix.com/GPX/1/1" xmlns:xsi="http://www.w3.org/2001/XMLSchema-instance" xsi:schemaLocation="http://www.topografix.com/GPX/1/1 http://www.topografix.com/GPX/1/1/gpx.xsd" version="1.1" creator="VisuGPX - https://www.visugpx.com">
  <metadata>
    <name>Premiere étape Trans Verdon</name>
    <desc><![CDATA[Première étape de la Trans Verdon 2020
]]></desc>
  </metadata>
  <trk>
    <name><![CDATA[Premiere étape Trans Verdon_2]]></name>
    <trkseg>
      <trkpt lat="44.24145" lon="6.6267">
        <ele>1424</ele>
        <time>2020-03-24T13:05:29.387Z</time>
      </trkpt>
      <trkpt lat="44.24149" lon="6.62665">
        <ele>1424</ele>
        <time>2020-03-24T13:05:30.387Z</time>
      </trkpt>
      <trkpt lat="44.24172" lon="6.6264">
        <ele>1424</ele>
        <time>2020-03-24T13:05:31.387Z</time>
      </trkpt>
      <trkpt lat="44.24199" lon="6.62594">
        <ele>1424</ele>
        <time>2020-03-24T13:05:32.387Z</time>
      </trkpt>
      <trkpt lat="44.2421" lon="6.62571">
        <ele>1424</ele>
        <time>2020-03-24T13:05:33.387Z</time>
      </trkpt>
      <trkpt lat="44.24224" lon="6.62534">
        <ele>1423</ele>
        <time>2020-03-24T13:05:34.387Z</time>
      </trkpt>
      <trkpt lat="44.24232" lon="6.62516">
        <ele>1423</ele>
        <time>2020-03-24T13:05:35.387Z</time>
      </trkpt>
      <trkpt lat="44.2424" lon="6.62497">
        <ele>1422</ele>
        <time>2020-03-24T13:05:36.387Z</time>
      </trkpt>
      <trkpt lat="44.24262" lon="6.62435">
        <ele>1422</ele>
        <time>2020-03-24T13:05:37.387Z</time>
      </trkpt>
      <trkpt lat="44.24282" lon="6.62385">
        <ele>1422</ele>
        <time>2020-03-24T13:05:38.387Z</time>
      </trkpt>
      <trkpt lat="44.24299" lon="6.6234">
        <ele>1421</ele>
        <time>2020-03-24T13:05:39.387Z</time>
      </trkpt>
      <trkpt lat="44.24302" lon="6.62333">
        <ele>1421</ele>
        <time>2020-03-24T13:05:40.387Z</time>
      </trkpt>
      <trkpt lat="44.24325" lon="6.62287">
        <ele>1420</ele>
        <time>2020-03-24T13:05:41.387Z</time>
      </trkpt>
      <trkpt lat="44.24327" lon="6.62284">
        <ele>1420</ele>
        <time>2020-03-24T13:05:42.387Z</time>
      </trkpt>
      <trkpt lat="44.24334" lon="6.62288">
        <ele>1420</ele>
        <time>2020-03-24T13:05:43.387Z</time>
      </trkpt>
      <trkpt lat="44.24337" lon="6.62296">
        <ele>1421</ele>
        <time>2020-03-24T13:05:44.387Z</time>
      </trkpt>
      <trkpt lat="44.24353" lon="6.62312">
        <ele>1421</ele>
        <time>2020-03-24T13:05:45.387Z</time>
      </trkpt>
      <trkpt lat="44.24355" lon="6.62314">
        <ele>1421</ele>
        <time>2020-03-24T13:05:46.387Z</time>
      </trkpt>
      <trkpt lat="44.24359" lon="6.62322">
        <ele>1422</ele>
        <time>2020-03-24T13:05:47.387Z</time>
      </trkpt>
      <trkpt lat="44.2436" lon="6.62329">
        <ele>1422</ele>
        <time>2020-03-24T13:05:48.387Z</time>
      </trkpt>
      <trkpt lat="44.2437" lon="6.62343">
        <ele>1423</ele>
        <time>2020-03-24T13:05:49.387Z</time>
      </trkpt>
      <trkpt lat="44.244" lon="6.62354">
        <ele>1424</ele>
        <time>2020-03-24T13:05:50.387Z</time>
      </trkpt>
      <trkpt lat="44.24425" lon="6.62351">
        <ele>1425</ele>
        <time>2020-03-24T13:05:51.387Z</time>
      </trkpt>
      <trkpt lat="44.24442" lon="6.62349">
        <ele>1427</ele>
        <time>2020-03-24T13:05:52.387Z</time>
      </trkpt>
      <trkpt lat="44.24465" lon="6.62341">
        <ele>1429</ele>
        <time>2020-03-24T13:05:53.387Z</time>
      </trkpt>
      <trkpt lat="44.24487" lon="6.62333">
        <ele>1431</ele>
        <time>2020-03-24T13:05:54.387Z</time>
      </trkpt>
      <trkpt lat="44.2451" lon="6.62341">
        <ele>1433</ele>
        <time>2020-03-24T13:05:55.387Z</time>
      </trkpt>
      <trkpt lat="44.24529" lon="6.62356">
        <ele>1435</ele>
        <time>2020-03-24T13:05:56.387Z</time>
      </trkpt>
      <trkpt lat="44.24538" lon="6.62366">
        <ele>1436</ele>
        <time>2020-03-24T13:05:57.387Z</time>
      </trkpt>
      <trkpt lat="44.2454" lon="6.62367">
        <ele>1436</ele>
        <time>2020-03-24T13:05:58.387Z</time>
      </trkpt>
      <trkpt lat="44.24549" lon="6.6236">
        <ele>1437</ele>
        <time>2020-03-24T13:05:59.387Z</time>
      </trkpt>
      <trkpt lat="44.24551" lon="6.62356">
        <ele>1437</ele>
        <time>2020-03-24T13:06:00.387Z</time>
      </trkpt>
      <trkpt lat="44.24564" lon="6.62301">
        <ele>1441</ele>
        <time>2020-03-24T13:06:01.387Z</time>
      </trkpt>
      <trkpt lat="44.24566" lon="6.62296">
        <ele>1442</ele>
        <time>2020-03-24T13:06:02.387Z</time>
      </trkpt>
      <trkpt lat="44.24563" lon="6.62274">
        <ele>1443</ele>
        <time>2020-03-24T13:06:03.387Z</time>
      </trkpt>
      <trkpt lat="44.24559" lon="6.62265">
        <ele>1444</ele>
        <time>2020-03-24T13:06:04.387Z</time>
      </trkpt>
      <trkpt lat="44.2454" lon="6.62231">
        <ele>1443</ele>
        <time>2020-03-24T13:06:05.387Z</time>
      </trkpt>
      <trkpt lat="44.24532" lon="6.62203">
        <ele>1444</ele>
        <time>2020-03-24T13:06:06.387Z</time>
      </trkpt>
      <trkpt lat="44.24526" lon="6.62137">
        <ele>1449</ele>
        <time>2020-03-24T13:06:07.387Z</time>
      </trkpt>
      <trkpt lat="44.24513" lon="6.621">
        <ele>1449</ele>
        <time>2020-03-24T13:06:08.387Z</time>
      </trkpt>
      <trkpt lat="44.24491" lon="6.62063">
        <ele>1446</ele>
        <time>2020-03-24T13:06:09.387Z</time>
      </trkpt>
      <trkpt lat="44.24478" lon="6.62024">
        <ele>1445</ele>
        <time>2020-03-24T13:06:10.387Z</time>
      </trkpt>
      <trkpt lat="44.24472" lon="6.61977">
        <ele>1443</ele>
        <time>2020-03-24T13:06:11.387Z</time>
      </trkpt>
      <trkpt lat="44.24473" lon="6.61934">
        <ele>1441</ele>
        <time>2020-03-24T13:06:12.387Z</time>
      </trkpt>
      <trkpt lat="44.24476" lon="6.6189">
        <ele>1440</ele>
        <time>2020-03-24T13:06:13.387Z</time>
      </trkpt>
      <trkpt lat="44.24488" lon="6.61862">
        <ele>1442</ele>
        <time>2020-03-24T13:06:14.387Z</time>
      </trkpt>
      <trkpt lat="44.24491" lon="6.61859">
        <ele>1442</ele>
        <time>2020-03-24T13:06:15.387Z</time>
      </trkpt>
      <trkpt lat="44.24515" lon="6.6183">
        <ele>1449</ele>
        <time>2020-03-24T13:06:16.387Z</time>
      </trkpt>
      <trkpt lat="44.24521" lon="6.61817">
        <ele>1453</ele>
        <time>2020-03-24T13:06:17.387Z</time>
      </trkpt>
      <trkpt lat="44.24522" lon="6.61817">
        <ele>1453</ele>
        <time>2020-03-24T13:06:18.387Z</time>
      </trkpt>
      <trkpt lat="44.24519" lon="6.61723">
        <ele>1466</ele>
      </trkpt>
      <trkpt lat="44.24478" lon="6.61659">
        <ele>1455.6</ele>
      </trkpt>
      <trkpt lat="44.24469" lon="6.61562">
        <ele>1463.2</ele>
      </trkpt>
      <trkpt lat="44.24431" lon="6.61535">
        <ele>1458.4</ele>
      </trkpt>
      <trkpt lat="44.24409" lon="6.61513">
        <ele>1459</ele>
      </trkpt>
      <trkpt lat="44.24382" lon="6.61548">
        <ele>1460</ele>
        <time>2020-03-24T13:06:19.387Z</time>
      </trkpt>
      <trkpt lat="44.24377" lon="6.61565">
        <ele>1461</ele>
        <time>2020-03-24T13:06:20.387Z</time>
      </trkpt>
      <trkpt lat="44.24372" lon="6.61589">
        <ele>1462</ele>
        <time>2020-03-24T13:06:21.387Z</time>
      </trkpt>
      <trkpt lat="44.24366" lon="6.61618">
        <ele>1463</ele>
        <time>2020-03-24T13:06:22.387Z</time>
      </trkpt>
      <trkpt lat="44.24359" lon="6.61648">
        <ele>1464</ele>
        <time>2020-03-24T13:06:23.387Z</time>
      </trkpt>
      <trkpt lat="44.24356" lon="6.61673">
        <ele>1464</ele>
        <time>2020-03-24T13:06:24.387Z</time>
      </trkpt>
      <trkpt lat="44.24355" lon="6.61709">
        <ele>1462</ele>
        <time>2020-03-24T13:06:25.387Z</time>
      </trkpt>
      <trkpt lat="44.24351" lon="6.61733">
        <ele>1462</ele>
        <time>2020-03-24T13:06:26.387Z</time>
      </trkpt>
      <trkpt lat="44.24343" lon="6.61764">
        <ele>1463</ele>
        <time>2020-03-24T13:06:27.387Z</time>
      </trkpt>
      <trkpt lat="44.24336" lon="6.6179">
        <ele>1464</ele>
        <time>2020-03-24T13:06:28.387Z</time>
      </trkpt>
      <trkpt lat="44.24326" lon="6.61813">
        <ele>1464</ele>
        <time>2020-03-24T13:06:29.387Z</time>
      </trkpt>
      <trkpt lat="44.24309" lon="6.61831">
        <ele>1466</ele>
        <time>2020-03-24T13:06:30.387Z</time>
      </trkpt>
      <trkpt lat="44.24283" lon="6.61847">
        <ele>1469</ele>
        <time>2020-03-24T13:06:31.387Z</time>
      </trkpt>
      <trkpt lat="44.24258" lon="6.6185">
        <ele>1473</ele>
        <time>2020-03-24T13:06:32.387Z</time>
      </trkpt>
      <trkpt lat="44.24236" lon="6.61842">
        <ele>1478</ele>
        <time>2020-03-24T13:06:33.387Z</time>
      </trkpt>
      <trkpt lat="44.24203" lon="6.61828">
        <ele>1483</ele>
        <time>2020-03-24T13:06:34.387Z</time>
      </trkpt>
      <trkpt lat="44.24182" lon="6.61827">
        <ele>1486</ele>
        <time>2020-03-24T13:06:35.387Z</time>
      </trkpt>
      <trkpt lat="44.24166" lon="6.61823">
        <ele>1489</ele>
        <time>2020-03-24T13:06:36.387Z</time>
      </trkpt>
      <trkpt lat="44.24166" lon="6.61806">
        <ele>1491</ele>
        <time>2020-03-24T13:06:37.387Z</time>
      </trkpt>
      <trkpt lat="44.24182" lon="6.61787">
        <ele>1492</ele>
        <time>2020-03-24T13:06:38.387Z</time>
      </trkpt>
      <trkpt lat="44.24196" lon="6.61773">
        <ele>1492</ele>
        <time>2020-03-24T13:06:39.387Z</time>
      </trkpt>
      <trkpt lat="44.24208" lon="6.6176">
        <ele>1492</ele>
        <time>2020-03-24T13:06:40.387Z</time>
      </trkpt>
      <trkpt lat="44.24226" lon="6.6174">
        <ele>1491</ele>
        <time>2020-03-24T13:06:41.387Z</time>
      </trkpt>
      <trkpt lat="44.2424" lon="6.61715">
        <ele>1491</ele>
        <time>2020-03-24T13:06:42.387Z</time>
      </trkpt>
      <trkpt lat="44.24248" lon="6.61688">
        <ele>1492</ele>
        <time>2020-03-24T13:06:43.387Z</time>
      </trkpt>
      <trkpt lat="44.24252" lon="6.61659">
        <ele>1494</ele>
        <time>2020-03-24T13:06:44.387Z</time>
      </trkpt>
      <trkpt lat="44.2425" lon="6.61627">
        <ele>1497</ele>
        <time>2020-03-24T13:06:45.387Z</time>
      </trkpt>
      <trkpt lat="44.24247" lon="6.61598">
        <ele>1499</ele>
        <time>2020-03-24T13:06:46.387Z</time>
      </trkpt>
      <trkpt lat="44.2425" lon="6.61567">
        <ele>1501</ele>
        <time>2020-03-24T13:06:47.387Z</time>
      </trkpt>
      <trkpt lat="44.24257" lon="6.61541">
        <ele>1501</ele>
        <time>2020-03-24T13:06:48.387Z</time>
      </trkpt>
      <trkpt lat="44.2426" lon="6.61514">
        <ele>1501</ele>
        <time>2020-03-24T13:06:49.387Z</time>
      </trkpt>
      <trkpt lat="44.24254" lon="6.61493">
        <ele>1504</ele>
        <time>2020-03-24T13:06:50.387Z</time>
      </trkpt>
      <trkpt lat="44.24239" lon="6.61481">
        <ele>1508</ele>
        <time>2020-03-24T13:06:51.387Z</time>
      </trkpt>
      <trkpt lat="44.24222" lon="6.61479">
        <ele>1510</ele>
        <time>2020-03-24T13:06:52.387Z</time>
      </trkpt>
      <trkpt lat="44.24202" lon="6.61486">
        <ele>1513</ele>
        <time>2020-03-24T13:06:53.387Z</time>
      </trkpt>
      <trkpt lat="44.24187" lon="6.61501">
        <ele>1514</ele>
        <time>2020-03-24T13:06:54.387Z</time>
      </trkpt>
      <trkpt lat="44.24176" lon="6.61528">
        <ele>1514</ele>
        <time>2020-03-24T13:06:55.387Z</time>
      </trkpt>
      <trkpt lat="44.2417" lon="6.61549">
        <ele>1514</ele>
        <time>2020-03-24T13:06:56.387Z</time>
      </trkpt>
      <trkpt lat="44.24166" lon="6.61579">
        <ele>1512</ele>
        <time>2020-03-24T13:06:57.387Z</time>
      </trkpt>
      <trkpt lat="44.24159" lon="6.61603">
        <ele>1512</ele>
        <time>2020-03-24T13:06:58.387Z</time>
      </trkpt>
      <trkpt lat="44.24144" lon="6.61621">
        <ele>1513</ele>
        <time>2020-03-24T13:06:59.387Z</time>
      </trkpt>
      <trkpt lat="44.24126" lon="6.61624">
        <ele>1515</ele>
        <time>2020-03-24T13:07:00.387Z</time>
      </trkpt>
      <trkpt lat="44.24104" lon="6.61624">
        <ele>1518</ele>
        <time>2020-03-24T13:07:01.387Z</time>
      </trkpt>
      <trkpt lat="44.24088" lon="6.61625">
        <ele>1521</ele>
        <time>2020-03-24T13:07:02.387Z</time>
      </trkpt>
      <trkpt lat="44.24071" lon="6.61626">
        <ele>1524</ele>
        <time>2020-03-24T13:07:03.387Z</time>
      </trkpt>
      <trkpt lat="44.24055" lon="6.6163">
        <ele>1527</ele>
        <time>2020-03-24T13:07:04.387Z</time>
      </trkpt>
      <trkpt lat="44.24052" lon="6.6163">
        <ele>1527</ele>
        <time>2020-03-24T13:07:05.387Z</time>
      </trkpt>
      <trkpt lat="44.24051" lon="6.61643">
        <ele>1526</ele>
        <time>2020-03-24T13:07:06.387Z</time>
      </trkpt>
      <trkpt lat="44.24049" lon="6.61649">
        <ele>1526</ele>
        <time>2020-03-24T13:07:07.387Z</time>
      </trkpt>
      <trkpt lat="44.24039" lon="6.61681">
        <ele>1525</ele>
        <time>2020-03-24T13:07:08.387Z</time>
      </trkpt>
      <trkpt lat="44.24031" lon="6.61703">
        <ele>1525</ele>
        <time>2020-03-24T13:07:09.387Z</time>
      </trkpt>
      <trkpt lat="44.24018" lon="6.61724">
        <ele>1526</ele>
        <time>2020-03-24T13:07:10.387Z</time>
      </trkpt>
      <trkpt lat="44.24002" lon="6.61742">
        <ele>1527</ele>
        <time>2020-03-24T13:07:11.387Z</time>
      </trkpt>
      <trkpt lat="44.23985" lon="6.6176">
        <ele>1529</ele>
        <time>2020-03-24T13:07:12.387Z</time>
      </trkpt>
      <trkpt lat="44.23974" lon="6.61772">
        <ele>1531</ele>
        <time>2020-03-24T13:07:13.387Z</time>
      </trkpt>
      <trkpt lat="44.2396" lon="6.61791">
        <ele>1532</ele>
        <time>2020-03-24T13:07:14.387Z</time>
      </trkpt>
      <trkpt lat="44.23947" lon="6.61803">
        <ele>1533</ele>
        <time>2020-03-24T13:07:15.387Z</time>
      </trkpt>
      <trkpt lat="44.23927" lon="6.61815">
        <ele>1537</ele>
        <time>2020-03-24T13:07:16.387Z</time>
      </trkpt>
      <trkpt lat="44.23911" lon="6.6182">
        <ele>1540</ele>
        <time>2020-03-24T13:07:17.387Z</time>
      </trkpt>
      <trkpt lat="44.23891" lon="6.61823">
        <ele>1544</ele>
        <time>2020-03-24T13:07:18.387Z</time>
      </trkpt>
      <trkpt lat="44.2387" lon="6.6183">
        <ele>1548</ele>
        <time>2020-03-24T13:07:19.387Z</time>
      </trkpt>
      <trkpt lat="44.2385" lon="6.61838">
        <ele>1550</ele>
        <time>2020-03-24T13:07:20.387Z</time>
      </trkpt>
      <trkpt lat="44.23832" lon="6.61843">
        <ele>1553</ele>
        <time>2020-03-24T13:07:21.387Z</time>
      </trkpt>
      <trkpt lat="44.23815" lon="6.61848">
        <ele>1556</ele>
        <time>2020-03-24T13:07:22.387Z</time>
      </trkpt>
      <trkpt lat="44.23799" lon="6.61856">
        <ele>1558</ele>
        <time>2020-03-24T13:07:23.387Z</time>
      </trkpt>
      <trkpt lat="44.23781" lon="6.61868">
        <ele>1560</ele>
        <time>2020-03-24T13:07:24.387Z</time>
      </trkpt>
      <trkpt lat="44.23763" lon="6.61883">
        <ele>1561</ele>
        <time>2020-03-24T13:07:25.387Z</time>
      </trkpt>
      <trkpt lat="44.23754" lon="6.61894">
        <ele>1560</ele>
        <time>2020-03-24T13:07:26.387Z</time>
      </trkpt>
      <trkpt lat="44.2374" lon="6.61906">
        <ele>1562</ele>
        <time>2020-03-24T13:07:27.387Z</time>
      </trkpt>
      <trkpt lat="44.23727" lon="6.6192">
        <ele>1563</ele>
        <time>2020-03-24T13:07:28.387Z</time>
      </trkpt>
      <trkpt lat="44.2371" lon="6.6194">
        <ele>1565</ele>
        <time>2020-03-24T13:07:29.387Z</time>
      </trkpt>
      <trkpt lat="44.23697" lon="6.61958">
        <ele>1565</ele>
        <time>2020-03-24T13:07:30.387Z</time>
      </trkpt>
      <trkpt lat="44.23686" lon="6.61975">
        <ele>1565</ele>
        <time>2020-03-24T13:07:31.387Z</time>
      </trkpt>
      <trkpt lat="44.23683" lon="6.61977">
        <ele>1566</ele>
        <time>2020-03-24T13:07:32.387Z</time>
      </trkpt>
      <trkpt lat="44.23676" lon="6.61968">
        <ele>1570</ele>
        <time>2020-03-24T13:07:33.387Z</time>
      </trkpt>
      <trkpt lat="44.23676" lon="6.61963">
        <ele>1572</ele>
        <time>2020-03-24T13:07:34.387Z</time>
      </trkpt>
      <trkpt lat="44.23685" lon="6.61942">
        <ele>1573</ele>
        <time>2020-03-24T13:07:35.387Z</time>
      </trkpt>
      <trkpt lat="44.23686" lon="6.61941">
        <ele>1573</ele>
        <time>2020-03-24T13:07:36.387Z</time>
      </trkpt>
      <trkpt lat="44.23686" lon="6.6194">
        <ele>1573</ele>
        <time>2020-03-24T13:07:37.387Z</time>
      </trkpt>
      <trkpt lat="44.23694" lon="6.61926">
        <ele>1573</ele>
        <time>2020-03-24T13:07:38.387Z</time>
      </trkpt>
      <trkpt lat="44.23704" lon="6.61911">
        <ele>1573</ele>
        <time>2020-03-24T13:07:39.387Z</time>
      </trkpt>
      <trkpt lat="44.23715" lon="6.61894">
        <ele>1573</ele>
        <time>2020-03-24T13:07:40.387Z</time>
      </trkpt>
      <trkpt lat="44.23724" lon="6.61874">
        <ele>1575</ele>
        <time>2020-03-24T13:07:41.387Z</time>
      </trkpt>
      <trkpt lat="44.23733" lon="6.61844">
        <ele>1579</ele>
        <time>2020-03-24T13:07:42.387Z</time>
      </trkpt>
      <trkpt lat="44.23742" lon="6.61816">
        <ele>1582</ele>
        <time>2020-03-24T13:07:43.387Z</time>
      </trkpt>
      <trkpt lat="44.23752" lon="6.61798">
        <ele>1582</ele>
        <time>2020-03-24T13:07:44.387Z</time>
      </trkpt>
      <trkpt lat="44.2377" lon="6.61775">
        <ele>1582</ele>
        <time>2020-03-24T13:07:45.387Z</time>
      </trkpt>
      <trkpt lat="44.23787" lon="6.61757">
        <ele>1580</ele>
        <time>2020-03-24T13:07:46.387Z</time>
      </trkpt>
      <trkpt lat="44.23789" lon="6.61755">
        <ele>1580</ele>
        <time>2020-03-24T13:07:47.387Z</time>
      </trkpt>
      <trkpt lat="44.23793" lon="6.61737">
        <ele>1582</ele>
        <time>2020-03-24T13:07:48.387Z</time>
      </trkpt>
      <trkpt lat="44.23795" lon="6.61717">
        <ele>1584</ele>
        <time>2020-03-24T13:07:49.387Z</time>
      </trkpt>
      <trkpt lat="44.23796" lon="6.61697">
        <ele>1586</ele>
        <time>2020-03-24T13:07:50.387Z</time>
      </trkpt>
      <trkpt lat="44.23795" lon="6.6169">
        <ele>1587</ele>
        <time>2020-03-24T13:07:51.387Z</time>
      </trkpt>
      <trkpt lat="44.23785" lon="6.61689">
        <ele>1590</ele>
        <time>2020-03-24T13:07:52.387Z</time>
      </trkpt>
      <trkpt lat="44.2378" lon="6.61704">
        <ele>1590</ele>
        <time>2020-03-24T13:07:53.387Z</time>
      </trkpt>
      <trkpt lat="44.2378" lon="6.61724">
        <ele>1587</ele>
        <time>2020-03-24T13:07:54.387Z</time>
      </trkpt>
      <trkpt lat="44.23779" lon="6.61731">
        <ele>1587</ele>
        <time>2020-03-24T13:07:55.387Z</time>
      </trkpt>
      <trkpt lat="44.2377" lon="6.61747">
        <ele>1587</ele>
        <time>2020-03-24T13:07:56.387Z</time>
      </trkpt>
      <trkpt lat="44.23758" lon="6.6175">
        <ele>1590</ele>
        <time>2020-03-24T13:07:57.387Z</time>
      </trkpt>
      <trkpt lat="44.23744" lon="6.61752">
        <ele>1593</ele>
        <time>2020-03-24T13:07:58.387Z</time>
      </trkpt>
      <trkpt lat="44.23728" lon="6.61756">
        <ele>1597</ele>
        <time>2020-03-24T13:07:59.387Z</time>
      </trkpt>
      <trkpt lat="44.23716" lon="6.61761">
        <ele>1600</ele>
        <time>2020-03-24T13:08:00.387Z</time>
      </trkpt>
      <trkpt lat="44.23705" lon="6.61766">
        <ele>1603</ele>
        <time>2020-03-24T13:08:01.387Z</time>
      </trkpt>
      <trkpt lat="44.23692" lon="6.61776">
        <ele>1605</ele>
        <time>2020-03-24T13:08:02.387Z</time>
      </trkpt>
      <trkpt lat="44.23678" lon="6.6179">
        <ele>1607</ele>
        <time>2020-03-24T13:08:03.387Z</time>
      </trkpt>
      <trkpt lat="44.23667" lon="6.61801">
        <ele>1609</ele>
        <time>2020-03-24T13:08:04.387Z</time>
      </trkpt>
      <trkpt lat="44.23655" lon="6.61814">
        <ele>1611</ele>
        <time>2020-03-24T13:08:05.387Z</time>
      </trkpt>
      <trkpt lat="44.23644" lon="6.61827">
        <ele>1613</ele>
        <time>2020-03-24T13:08:06.387Z</time>
      </trkpt>
      <trkpt lat="44.23633" lon="6.61847">
        <ele>1614</ele>
        <time>2020-03-24T13:08:07.387Z</time>
      </trkpt>
      <trkpt lat="44.23624" lon="6.61863">
        <ele>1614</ele>
        <time>2020-03-24T13:08:08.387Z</time>
      </trkpt>
      <trkpt lat="44.23612" lon="6.6188">
        <ele>1616</ele>
        <time>2020-03-24T13:08:09.387Z</time>
      </trkpt>
      <trkpt lat="44.23601" lon="6.61898">
        <ele>1617</ele>
        <time>2020-03-24T13:08:10.387Z</time>
      </trkpt>
      <trkpt lat="44.23593" lon="6.61912">
        <ele>1618</ele>
        <time>2020-03-24T13:08:11.387Z</time>
      </trkpt>
      <trkpt lat="44.23583" lon="6.6193">
        <ele>1619</ele>
        <time>2020-03-24T13:08:12.387Z</time>
      </trkpt>
      <trkpt lat="44.23571" lon="6.61936">
        <ele>1622</ele>
        <time>2020-03-24T13:08:13.387Z</time>
      </trkpt>
      <trkpt lat="44.23571" lon="6.61925">
        <ele>1625</ele>
        <time>2020-03-24T13:08:14.387Z</time>
      </trkpt>
      <trkpt lat="44.23581" lon="6.61894">
        <ele>1626</ele>
        <time>2020-03-24T13:08:15.387Z</time>
      </trkpt>
      <trkpt lat="44.2359" lon="6.61867">
        <ele>1627</ele>
        <time>2020-03-24T13:08:16.387Z</time>
      </trkpt>
      <trkpt lat="44.23604" lon="6.61842">
        <ele>1626</ele>
        <time>2020-03-24T13:08:17.387Z</time>
      </trkpt>
      <trkpt lat="44.23611" lon="6.61821">
        <ele>1626</ele>
        <time>2020-03-24T13:08:18.387Z</time>
      </trkpt>
      <trkpt lat="44.23608" lon="6.6181">
        <ele>1629</ele>
        <time>2020-03-24T13:08:19.387Z</time>
      </trkpt>
      <trkpt lat="44.23599" lon="6.61806">
        <ele>1633</ele>
        <time>2020-03-24T13:08:20.387Z</time>
      </trkpt>
      <trkpt lat="44.23587" lon="6.61816">
        <ele>1636</ele>
        <time>2020-03-24T13:08:21.387Z</time>
      </trkpt>
      <trkpt lat="44.23582" lon="6.61835">
        <ele>1635</ele>
        <time>2020-03-24T13:08:22.387Z</time>
      </trkpt>
      <trkpt lat="44.23572" lon="6.61852">
        <ele>1636</ele>
        <time>2020-03-24T13:08:23.387Z</time>
      </trkpt>
      <trkpt lat="44.23564" lon="6.61867">
        <ele>1638</ele>
        <time>2020-03-24T13:08:24.387Z</time>
      </trkpt>
      <trkpt lat="44.23554" lon="6.61884">
        <ele>1639</ele>
        <time>2020-03-24T13:08:25.387Z</time>
      </trkpt>
      <trkpt lat="44.23543" lon="6.61902">
        <ele>1641</ele>
        <time>2020-03-24T13:08:26.387Z</time>
      </trkpt>
      <trkpt lat="44.23531" lon="6.61921">
        <ele>1643</ele>
        <time>2020-03-24T13:08:27.387Z</time>
      </trkpt>
      <trkpt lat="44.23518" lon="6.61937">
        <ele>1646</ele>
        <time>2020-03-24T13:08:28.387Z</time>
      </trkpt>
      <trkpt lat="44.23505" lon="6.6195">
        <ele>1649</ele>
        <time>2020-03-24T13:08:29.387Z</time>
      </trkpt>
      <trkpt lat="44.23492" lon="6.61965">
        <ele>1652</ele>
        <time>2020-03-24T13:08:30.387Z</time>
      </trkpt>
      <trkpt lat="44.23478" lon="6.61985">
        <ele>1655</ele>
        <time>2020-03-24T13:08:31.387Z</time>
      </trkpt>
      <trkpt lat="44.23468" lon="6.62">
        <ele>1657</ele>
        <time>2020-03-24T13:08:32.387Z</time>
      </trkpt>
      <trkpt lat="44.23461" lon="6.62014">
        <ele>1658</ele>
        <time>2020-03-24T13:08:33.387Z</time>
      </trkpt>
      <trkpt lat="44.23452" lon="6.62033">
        <ele>1658</ele>
        <time>2020-03-24T13:08:34.387Z</time>
      </trkpt>
      <trkpt lat="44.23443" lon="6.62047">
        <ele>1658</ele>
        <time>2020-03-24T13:08:35.387Z</time>
      </trkpt>
      <trkpt lat="44.23431" lon="6.62057">
        <ele>1661</ele>
        <time>2020-03-24T13:08:36.387Z</time>
      </trkpt>
      <trkpt lat="44.23421" lon="6.62062">
        <ele>1664</ele>
        <time>2020-03-24T13:08:37.387Z</time>
      </trkpt>
      <trkpt lat="44.23404" lon="6.62069">
        <ele>1670</ele>
        <time>2020-03-24T13:08:38.387Z</time>
      </trkpt>
      <trkpt lat="44.23392" lon="6.62075">
        <ele>1673</ele>
        <time>2020-03-24T13:08:39.387Z</time>
      </trkpt>
      <trkpt lat="44.23382" lon="6.6208">
        <ele>1675</ele>
        <time>2020-03-24T13:08:40.387Z</time>
      </trkpt>
      <trkpt lat="44.23378" lon="6.6209">
        <ele>1673</ele>
        <time>2020-03-24T13:08:41.387Z</time>
      </trkpt>
      <trkpt lat="44.23366" lon="6.62104">
        <ele>1673</ele>
        <time>2020-03-24T13:08:42.387Z</time>
      </trkpt>
      <trkpt lat="44.23348" lon="6.62121">
        <ele>1673</ele>
        <time>2020-03-24T13:08:43.387Z</time>
      </trkpt>
      <trkpt lat="44.23344" lon="6.62124">
        <ele>1673</ele>
        <time>2020-03-24T13:08:44.387Z</time>
      </trkpt>
      <trkpt lat="44.23321" lon="6.62138">
        <ele>1673</ele>
        <time>2020-03-24T13:08:45.387Z</time>
      </trkpt>
      <trkpt lat="44.23296" lon="6.62149">
        <ele>1672</ele>
        <time>2020-03-24T13:08:46.387Z</time>
      </trkpt>
      <trkpt lat="44.23281" lon="6.62157">
        <ele>1671</ele>
        <time>2020-03-24T13:08:47.387Z</time>
      </trkpt>
      <trkpt lat="44.23262" lon="6.62169">
        <ele>1669</ele>
        <time>2020-03-24T13:08:48.387Z</time>
      </trkpt>
      <trkpt lat="44.23227" lon="6.62183">
        <ele>1664</ele>
        <time>2020-03-24T13:08:49.387Z</time>
      </trkpt>
      <trkpt lat="44.23211" lon="6.62187">
        <ele>1661</ele>
        <time>2020-03-24T13:08:50.387Z</time>
      </trkpt>
      <trkpt lat="44.23189" lon="6.62184">
        <ele>1661</ele>
        <time>2020-03-24T13:08:51.387Z</time>
      </trkpt>
      <trkpt lat="44.23171" lon="6.62178">
        <ele>1662</ele>
        <time>2020-03-24T13:08:52.387Z</time>
      </trkpt>
      <trkpt lat="44.23157" lon="6.62169">
        <ele>1662</ele>
        <time>2020-03-24T13:08:53.387Z</time>
      </trkpt>
      <trkpt lat="44.23139" lon="6.6216">
        <ele>1659</ele>
        <time>2020-03-24T13:08:54.387Z</time>
      </trkpt>
      <trkpt lat="44.23124" lon="6.62162">
        <ele>1654</ele>
        <time>2020-03-24T13:08:55.387Z</time>
      </trkpt>
      <trkpt lat="44.23114" lon="6.6215">
        <ele>1654</ele>
        <time>2020-03-24T13:08:56.387Z</time>
      </trkpt>
      <trkpt lat="44.23109" lon="6.6214">
        <ele>1657</ele>
        <time>2020-03-24T13:08:57.387Z</time>
      </trkpt>
      <trkpt lat="44.23098" lon="6.62112">
        <ele>1665</ele>
        <time>2020-03-24T13:08:58.387Z</time>
      </trkpt>
      <trkpt lat="44.23086" lon="6.62101">
        <ele>1666</ele>
        <time>2020-03-24T13:08:59.387Z</time>
      </trkpt>
      <trkpt lat="44.23078" lon="6.62091">
        <ele>1667</ele>
        <time>2020-03-24T13:09:00.387Z</time>
      </trkpt>
      <trkpt lat="44.23058" lon="6.62081">
        <ele>1666</ele>
        <time>2020-03-24T13:09:01.387Z</time>
      </trkpt>
      <trkpt lat="44.23044" lon="6.62089">
        <ele>1658</ele>
        <time>2020-03-24T13:09:02.387Z</time>
      </trkpt>
      <trkpt lat="44.23038" lon="6.62087">
        <ele>1657</ele>
        <time>2020-03-24T13:09:03.387Z</time>
      </trkpt>
      <trkpt lat="44.23027" lon="6.62077">
        <ele>1658</ele>
        <time>2020-03-24T13:09:04.387Z</time>
      </trkpt>
      <trkpt lat="44.23018" lon="6.62063">
        <ele>1660</ele>
        <time>2020-03-24T13:09:05.387Z</time>
      </trkpt>
      <trkpt lat="44.23009" lon="6.62047">
        <ele>1662</ele>
        <time>2020-03-24T13:09:06.387Z</time>
      </trkpt>
      <trkpt lat="44.23001" lon="6.62033">
        <ele>1663</ele>
        <time>2020-03-24T13:09:07.387Z</time>
      </trkpt>
      <trkpt lat="44.22996" lon="6.62027">
        <ele>1663</ele>
        <time>2020-03-24T13:09:08.387Z</time>
      </trkpt>
      <trkpt lat="44.22977" lon="6.62006">
        <ele>1659</ele>
        <time>2020-03-24T13:09:09.387Z</time>
      </trkpt>
      <trkpt lat="44.2296" lon="6.61977">
        <ele>1659</ele>
        <time>2020-03-24T13:09:10.387Z</time>
      </trkpt>
      <trkpt lat="44.22955" lon="6.61958">
        <ele>1661</ele>
        <time>2020-03-24T13:09:11.387Z</time>
      </trkpt>
      <trkpt lat="44.22951" lon="6.6194">
        <ele>1663</ele>
        <time>2020-03-24T13:09:12.387Z</time>
      </trkpt>
      <trkpt lat="44.22941" lon="6.61918">
        <ele>1664</ele>
        <time>2020-03-24T13:09:13.387Z</time>
      </trkpt>
      <trkpt lat="44.22935" lon="6.61897">
        <ele>1667</ele>
        <time>2020-03-24T13:09:14.387Z</time>
      </trkpt>
      <trkpt lat="44.22931" lon="6.61879">
        <ele>1670</ele>
        <time>2020-03-24T13:09:15.387Z</time>
      </trkpt>
      <trkpt lat="44.22923" lon="6.61864">
        <ele>1670</ele>
        <time>2020-03-24T13:09:16.387Z</time>
      </trkpt>
      <trkpt lat="44.22918" lon="6.61856">
        <ele>1670</ele>
        <time>2020-03-24T13:09:17.387Z</time>
      </trkpt>
      <trkpt lat="44.22912" lon="6.61848">
        <ele>1671</ele>
        <time>2020-03-24T13:09:18.387Z</time>
      </trkpt>
      <trkpt lat="44.22904" lon="6.61834">
        <ele>1673</ele>
        <time>2020-03-24T13:09:19.387Z</time>
      </trkpt>
      <trkpt lat="44.22901" lon="6.6182">
        <ele>1676</ele>
        <time>2020-03-24T13:09:20.387Z</time>
      </trkpt>
      <trkpt lat="44.229" lon="6.61819">
        <ele>1676</ele>
        <time>2020-03-24T13:09:21.387Z</time>
      </trkpt>
      <trkpt lat="44.22894" lon="6.6181">
        <ele>1677</ele>
        <time>2020-03-24T13:09:22.387Z</time>
      </trkpt>
      <trkpt lat="44.22892" lon="6.61808">
        <ele>1677</ele>
        <time>2020-03-24T13:09:23.387Z</time>
      </trkpt>
      <trkpt lat="44.22882" lon="6.61808">
        <ele>1674</ele>
        <time>2020-03-24T13:09:24.387Z</time>
      </trkpt>
      <trkpt lat="44.2288" lon="6.61812">
        <ele>1672</ele>
        <time>2020-03-24T13:09:25.387Z</time>
      </trkpt>
      <trkpt lat="44.22877" lon="6.61815">
        <ele>1671</ele>
        <time>2020-03-24T13:09:26.387Z</time>
      </trkpt>
      <trkpt lat="44.22869" lon="6.61804">
        <ele>1671</ele>
        <time>2020-03-24T13:09:27.387Z</time>
      </trkpt>
      <trkpt lat="44.22859" lon="6.6179">
        <ele>1672</ele>
        <time>2020-03-24T13:09:28.387Z</time>
      </trkpt>
      <trkpt lat="44.2285" lon="6.61782">
        <ele>1671</ele>
        <time>2020-03-24T13:09:29.387Z</time>
      </trkpt>
      <trkpt lat="44.22846" lon="6.61778">
        <ele>1671</ele>
        <time>2020-03-24T13:09:30.387Z</time>
      </trkpt>
      <trkpt lat="44.22844" lon="6.61777">
        <ele>1671</ele>
        <time>2020-03-24T13:09:31.387Z</time>
      </trkpt>
      <trkpt lat="44.22842" lon="6.61779">
        <ele>1669</ele>
        <time>2020-03-24T13:09:32.387Z</time>
      </trkpt>
      <trkpt lat="44.22839" lon="6.61781">
        <ele>1668</ele>
        <time>2020-03-24T13:09:33.387Z</time>
      </trkpt>
      <trkpt lat="44.22835" lon="6.6178">
        <ele>1667</ele>
        <time>2020-03-24T13:09:34.387Z</time>
      </trkpt>
      <trkpt lat="44.22834" lon="6.61781">
        <ele>1667</ele>
        <time>2020-03-24T13:09:35.387Z</time>
      </trkpt>
      <trkpt lat="44.22826" lon="6.61783">
        <ele>1668</ele>
        <time>2020-03-24T13:09:36.387Z</time>
      </trkpt>
      <trkpt lat="44.22823" lon="6.6178">
        <ele>1670</ele>
        <time>2020-03-24T13:09:37.387Z</time>
      </trkpt>
      <trkpt lat="44.22823" lon="6.61791">
        <ele>1668</ele>
        <time>2020-03-24T13:09:38.387Z</time>
      </trkpt>
      <trkpt lat="44.22823" lon="6.61796">
        <ele>1666</ele>
        <time>2020-03-24T13:09:39.387Z</time>
      </trkpt>
      <trkpt lat="44.22823" lon="6.61798">
        <ele>1666</ele>
        <time>2020-03-24T13:09:40.387Z</time>
      </trkpt>
      <trkpt lat="44.22824" lon="6.61801">
        <ele>1665</ele>
        <time>2020-03-24T13:09:41.387Z</time>
      </trkpt>
      <trkpt lat="44.22825" lon="6.61816">
        <ele>1661</ele>
        <time>2020-03-24T13:09:42.387Z</time>
      </trkpt>
      <trkpt lat="44.22826" lon="6.61836">
        <ele>1657</ele>
        <time>2020-03-24T13:09:43.387Z</time>
      </trkpt>
      <trkpt lat="44.22828" lon="6.61851">
        <ele>1654</ele>
        <time>2020-03-24T13:09:44.387Z</time>
      </trkpt>
      <trkpt lat="44.22828" lon="6.6186">
        <ele>1653</ele>
        <time>2020-03-24T13:09:45.387Z</time>
      </trkpt>
      <trkpt lat="44.22823" lon="6.61879">
        <ele>1652</ele>
        <time>2020-03-24T13:09:46.387Z</time>
      </trkpt>
      <trkpt lat="44.22822" lon="6.61881">
        <ele>1653</ele>
        <time>2020-03-24T13:09:47.387Z</time>
      </trkpt>
      <trkpt lat="44.22812" lon="6.61896">
        <ele>1654</ele>
        <time>2020-03-24T13:09:48.387Z</time>
      </trkpt>
      <trkpt lat="44.22801" lon="6.61911">
        <ele>1656</ele>
        <time>2020-03-24T13:09:49.387Z</time>
      </trkpt>
      <trkpt lat="44.22798" lon="6.61915">
        <ele>1657</ele>
        <time>2020-03-24T13:09:50.387Z</time>
      </trkpt>
      <trkpt lat="44.22783" lon="6.6193">
        <ele>1661</ele>
        <time>2020-03-24T13:09:51.387Z</time>
      </trkpt>
      <trkpt lat="44.22782" lon="6.61936">
        <ele>1660</ele>
        <time>2020-03-24T13:09:52.387Z</time>
      </trkpt>
      <trkpt lat="44.22778" lon="6.6194">
        <ele>1661</ele>
        <time>2020-03-24T13:09:53.387Z</time>
      </trkpt>
      <trkpt lat="44.22775" lon="6.61945">
        <ele>1662</ele>
        <time>2020-03-24T13:09:54.387Z</time>
      </trkpt>
      <trkpt lat="44.22773" lon="6.61946">
        <ele>1663</ele>
        <time>2020-03-24T13:09:55.387Z</time>
      </trkpt>
      <trkpt lat="44.22769" lon="6.61948">
        <ele>1664</ele>
        <time>2020-03-24T13:09:56.387Z</time>
      </trkpt>
      <trkpt lat="44.22759" lon="6.61957">
        <ele>1667</ele>
        <time>2020-03-24T13:09:57.387Z</time>
      </trkpt>
      <trkpt lat="44.22756" lon="6.61963">
        <ele>1668</ele>
        <time>2020-03-24T13:09:58.387Z</time>
      </trkpt>
      <trkpt lat="44.22746" lon="6.61965">
        <ele>1673</ele>
        <time>2020-03-24T13:09:59.387Z</time>
      </trkpt>
      <trkpt lat="44.22743" lon="6.6197">
        <ele>1674</ele>
        <time>2020-03-24T13:10:00.387Z</time>
      </trkpt>
      <trkpt lat="44.2274" lon="6.61982">
        <ele>1675</ele>
        <time>2020-03-24T13:10:01.387Z</time>
      </trkpt>
      <trkpt lat="44.22741" lon="6.61999">
        <ele>1672</ele>
        <time>2020-03-24T13:10:02.387Z</time>
      </trkpt>
      <trkpt lat="44.22742" lon="6.62004">
        <ele>1672</ele>
        <time>2020-03-24T13:10:03.387Z</time>
      </trkpt>
      <trkpt lat="44.2274" lon="6.62009">
        <ele>1673</ele>
        <time>2020-03-24T13:10:04.387Z</time>
      </trkpt>
      <trkpt lat="44.22739" lon="6.6201">
        <ele>1673</ele>
        <time>2020-03-24T13:10:05.387Z</time>
      </trkpt>
      <trkpt lat="44.22738" lon="6.62015">
        <ele>1673</ele>
        <time>2020-03-24T13:10:06.387Z</time>
      </trkpt>
      <trkpt lat="44.22737" lon="6.62022">
        <ele>1673</ele>
        <time>2020-03-24T13:10:07.387Z</time>
      </trkpt>
      <trkpt lat="44.22732" lon="6.62031">
        <ele>1676</ele>
        <time>2020-03-24T13:10:08.387Z</time>
      </trkpt>
      <trkpt lat="44.22728" lon="6.6204">
        <ele>1677</ele>
        <time>2020-03-24T13:10:09.387Z</time>
      </trkpt>
      <trkpt lat="44.22726" lon="6.62057">
        <ele>1677</ele>
        <time>2020-03-24T13:10:10.387Z</time>
      </trkpt>
      <trkpt lat="44.22725" lon="6.62061">
        <ele>1678</ele>
        <time>2020-03-24T13:10:11.387Z</time>
      </trkpt>
      <trkpt lat="44.22719" lon="6.62071">
        <ele>1680</ele>
        <time>2020-03-24T13:10:12.387Z</time>
      </trkpt>
      <trkpt lat="44.22713" lon="6.62086">
        <ele>1683</ele>
        <time>2020-03-24T13:10:13.387Z</time>
      </trkpt>
      <trkpt lat="44.22711" lon="6.62093">
        <ele>1684</ele>
        <time>2020-03-24T13:10:14.387Z</time>
      </trkpt>
      <trkpt lat="44.2271" lon="6.62101">
        <ele>1685</ele>
        <time>2020-03-24T13:10:15.387Z</time>
      </trkpt>
      <trkpt lat="44.22709" lon="6.62107">
        <ele>1685</ele>
        <time>2020-03-24T13:10:16.387Z</time>
      </trkpt>
      <trkpt lat="44.2271" lon="6.62121">
        <ele>1684</ele>
        <time>2020-03-24T13:10:17.387Z</time>
      </trkpt>
      <trkpt lat="44.22711" lon="6.62125">
        <ele>1684</ele>
        <time>2020-03-24T13:10:18.387Z</time>
      </trkpt>
      <trkpt lat="44.22713" lon="6.62135">
        <ele>1683</ele>
        <time>2020-03-24T13:10:19.387Z</time>
      </trkpt>
      <trkpt lat="44.22714" lon="6.62149">
        <ele>1682</ele>
        <time>2020-03-24T13:10:20.387Z</time>
      </trkpt>
      <trkpt lat="44.22717" lon="6.6216">
        <ele>1680</ele>
        <time>2020-03-24T13:10:21.387Z</time>
      </trkpt>
      <trkpt lat="44.2272" lon="6.62173">
        <ele>1679</ele>
        <time>2020-03-24T13:10:22.387Z</time>
      </trkpt>
      <trkpt lat="44.2272" lon="6.62175">
        <ele>1679</ele>
        <time>2020-03-24T13:10:23.387Z</time>
      </trkpt>
      <trkpt lat="44.22719" lon="6.62188">
        <ele>1679</ele>
        <time>2020-03-24T13:10:24.387Z</time>
      </trkpt>
      <trkpt lat="44.22719" lon="6.62196">
        <ele>1678</ele>
        <time>2020-03-24T13:10:25.387Z</time>
      </trkpt>
      <trkpt lat="44.22718" lon="6.62212">
        <ele>1678</ele>
        <time>2020-03-24T13:10:26.387Z</time>
      </trkpt>
      <trkpt lat="44.22715" lon="6.62225">
        <ele>1679</ele>
        <time>2020-03-24T13:10:27.387Z</time>
      </trkpt>
      <trkpt lat="44.22715" lon="6.62227">
        <ele>1679</ele>
        <time>2020-03-24T13:10:28.387Z</time>
      </trkpt>
      <trkpt lat="44.22717" lon="6.62242">
        <ele>1677</ele>
        <time>2020-03-24T13:10:29.387Z</time>
      </trkpt>
      <trkpt lat="44.22717" lon="6.62265">
        <ele>1676</ele>
        <time>2020-03-24T13:10:30.387Z</time>
      </trkpt>
      <trkpt lat="44.22717" lon="6.62282">
        <ele>1674</ele>
        <time>2020-03-24T13:10:31.387Z</time>
      </trkpt>
      <trkpt lat="44.2271" lon="6.62301">
        <ele>1674</ele>
        <time>2020-03-24T13:10:32.387Z</time>
      </trkpt>
      <trkpt lat="44.22699" lon="6.62313">
        <ele>1675</ele>
        <time>2020-03-24T13:10:33.387Z</time>
      </trkpt>
      <trkpt lat="44.22686" lon="6.62327">
        <ele>1676</ele>
        <time>2020-03-24T13:10:34.387Z</time>
      </trkpt>
      <trkpt lat="44.2267" lon="6.6233">
        <ele>1678</ele>
        <time>2020-03-24T13:10:35.387Z</time>
      </trkpt>
      <trkpt lat="44.22657" lon="6.62328">
        <ele>1679</ele>
        <time>2020-03-24T13:10:36.387Z</time>
      </trkpt>
      <trkpt lat="44.22639" lon="6.62321">
        <ele>1682</ele>
        <time>2020-03-24T13:10:37.387Z</time>
      </trkpt>
      <trkpt lat="44.22623" lon="6.62311">
        <ele>1685</ele>
        <time>2020-03-24T13:10:38.387Z</time>
      </trkpt>
      <trkpt lat="44.22611" lon="6.62302">
        <ele>1689</ele>
        <time>2020-03-24T13:10:39.387Z</time>
      </trkpt>
      <trkpt lat="44.22604" lon="6.62288">
        <ele>1694</ele>
        <time>2020-03-24T13:10:40.387Z</time>
      </trkpt>
      <trkpt lat="44.22595" lon="6.62281">
        <ele>1697</ele>
        <time>2020-03-24T13:10:41.387Z</time>
      </trkpt>
      <trkpt lat="44.22585" lon="6.62278">
        <ele>1699</ele>
        <time>2020-03-24T13:10:42.387Z</time>
      </trkpt>
      <trkpt lat="44.22571" lon="6.62281">
        <ele>1700</ele>
        <time>2020-03-24T13:10:43.387Z</time>
      </trkpt>
      <trkpt lat="44.22559" lon="6.62282">
        <ele>1702</ele>
        <time>2020-03-24T13:10:44.387Z</time>
      </trkpt>
      <trkpt lat="44.2255" lon="6.62286">
        <ele>1702</ele>
        <time>2020-03-24T13:10:45.387Z</time>
      </trkpt>
      <trkpt lat="44.22542" lon="6.62288">
        <ele>1702</ele>
        <time>2020-03-24T13:10:46.387Z</time>
      </trkpt>
      <trkpt lat="44.22533" lon="6.62287">
        <ele>1704</ele>
        <time>2020-03-24T13:10:47.387Z</time>
      </trkpt>
      <trkpt lat="44.22524" lon="6.62289">
        <ele>1705</ele>
        <time>2020-03-24T13:10:48.387Z</time>
      </trkpt>
      <trkpt lat="44.22519" lon="6.62291">
        <ele>1705</ele>
        <time>2020-03-24T13:10:49.387Z</time>
      </trkpt>
      <trkpt lat="44.22513" lon="6.62294">
        <ele>1705</ele>
        <time>2020-03-24T13:10:50.387Z</time>
      </trkpt>
      <trkpt lat="44.22509" lon="6.62295">
        <ele>1705</ele>
        <time>2020-03-24T13:10:51.387Z</time>
      </trkpt>
      <trkpt lat="44.22508" lon="6.62296">
        <ele>1705</ele>
        <time>2020-03-24T13:10:52.387Z</time>
      </trkpt>
      <trkpt lat="44.22498" lon="6.623">
        <ele>1704</ele>
        <time>2020-03-24T13:10:53.387Z</time>
      </trkpt>
      <trkpt lat="44.22487" lon="6.623">
        <ele>1706</ele>
        <time>2020-03-24T13:10:54.387Z</time>
      </trkpt>
      <trkpt lat="44.2248" lon="6.623">
        <ele>1708</ele>
        <time>2020-03-24T13:10:55.387Z</time>
      </trkpt>
      <trkpt lat="44.22465" lon="6.62293">
        <ele>1713</ele>
        <time>2020-03-24T13:10:56.387Z</time>
      </trkpt>
      <trkpt lat="44.22454" lon="6.6229">
        <ele>1716</ele>
        <time>2020-03-24T13:10:57.387Z</time>
      </trkpt>
      <trkpt lat="44.22452" lon="6.62288">
        <ele>1717</ele>
        <time>2020-03-24T13:10:58.387Z</time>
      </trkpt>
      <trkpt lat="44.22439" lon="6.62288">
        <ele>1719</ele>
        <time>2020-03-24T13:10:59.387Z</time>
      </trkpt>
      <trkpt lat="44.22434" lon="6.6229">
        <ele>1719</ele>
        <time>2020-03-24T13:11:00.387Z</time>
      </trkpt>
      <trkpt lat="44.22432" lon="6.62302">
        <ele>1716</ele>
        <time>2020-03-24T13:11:01.387Z</time>
      </trkpt>
      <trkpt lat="44.2243" lon="6.62321">
        <ele>1712</ele>
        <time>2020-03-24T13:11:02.387Z</time>
      </trkpt>
      <trkpt lat="44.22431" lon="6.62343">
        <ele>1707</ele>
        <time>2020-03-24T13:11:03.387Z</time>
      </trkpt>
      <trkpt lat="44.22429" lon="6.62358">
        <ele>1705</ele>
        <time>2020-03-24T13:11:04.387Z</time>
      </trkpt>
      <trkpt lat="44.22423" lon="6.62371">
        <ele>1706</ele>
        <time>2020-03-24T13:11:05.387Z</time>
      </trkpt>
      <trkpt lat="44.22421" lon="6.62384">
        <ele>1705</ele>
        <time>2020-03-24T13:11:06.387Z</time>
      </trkpt>
      <trkpt lat="44.22411" lon="6.62403">
        <ele>1705</ele>
        <time>2020-03-24T13:11:07.387Z</time>
      </trkpt>
      <trkpt lat="44.22406" lon="6.62413">
        <ele>1705</ele>
        <time>2020-03-24T13:11:08.387Z</time>
      </trkpt>
      <trkpt lat="44.22396" lon="6.62427">
        <ele>1704</ele>
        <time>2020-03-24T13:11:09.387Z</time>
      </trkpt>
      <trkpt lat="44.22383" lon="6.62436">
        <ele>1705</ele>
        <time>2020-03-24T13:11:10.387Z</time>
      </trkpt>
      <trkpt lat="44.22371" lon="6.62443">
        <ele>1706</ele>
        <time>2020-03-24T13:11:11.387Z</time>
      </trkpt>
      <trkpt lat="44.22358" lon="6.62448">
        <ele>1707</ele>
        <time>2020-03-24T13:11:12.387Z</time>
      </trkpt>
      <trkpt lat="44.22349" lon="6.6245">
        <ele>1709</ele>
        <time>2020-03-24T13:11:13.387Z</time>
      </trkpt>
      <trkpt lat="44.22337" lon="6.62462">
        <ele>1709</ele>
        <time>2020-03-24T13:11:14.387Z</time>
      </trkpt>
      <trkpt lat="44.22324" lon="6.62474">
        <ele>1708</ele>
        <time>2020-03-24T13:11:15.387Z</time>
      </trkpt>
      <trkpt lat="44.22304" lon="6.62486">
        <ele>1707</ele>
        <time>2020-03-24T13:11:16.387Z</time>
      </trkpt>
      <trkpt lat="44.22285" lon="6.62498">
        <ele>1707</ele>
        <time>2020-03-24T13:11:17.387Z</time>
      </trkpt>
      <trkpt lat="44.2225" lon="6.62514">
        <ele>1709</ele>
        <time>2020-03-24T13:11:18.387Z</time>
      </trkpt>
      <trkpt lat="44.22238" lon="6.6252">
        <ele>1708</ele>
        <time>2020-03-24T13:11:19.387Z</time>
      </trkpt>
      <trkpt lat="44.22226" lon="6.62526">
        <ele>1708</ele>
        <time>2020-03-24T13:11:20.387Z</time>
      </trkpt>
      <trkpt lat="44.22218" lon="6.62529">
        <ele>1707</ele>
        <time>2020-03-24T13:11:21.387Z</time>
      </trkpt>
      <trkpt lat="44.22205" lon="6.62533">
        <ele>1706</ele>
        <time>2020-03-24T13:11:22.387Z</time>
      </trkpt>
      <trkpt lat="44.22179" lon="6.62544">
        <ele>1704</ele>
        <time>2020-03-24T13:11:23.387Z</time>
      </trkpt>
      <trkpt lat="44.22154" lon="6.62548">
        <ele>1703</ele>
        <time>2020-03-24T13:11:24.387Z</time>
      </trkpt>
      <trkpt lat="44.22135" lon="6.62551">
        <ele>1703</ele>
        <time>2020-03-24T13:11:25.387Z</time>
      </trkpt>
      <trkpt lat="44.22118" lon="6.62555">
        <ele>1702</ele>
        <time>2020-03-24T13:11:26.387Z</time>
      </trkpt>
      <trkpt lat="44.22107" lon="6.62557">
        <ele>1701</ele>
        <time>2020-03-24T13:11:27.387Z</time>
      </trkpt>
      <trkpt lat="44.22095" lon="6.62562">
        <ele>1699</ele>
        <time>2020-03-24T13:11:28.387Z</time>
      </trkpt>
      <trkpt lat="44.22076" lon="6.62572">
        <ele>1696</ele>
        <time>2020-03-24T13:11:29.387Z</time>
      </trkpt>
      <trkpt lat="44.22059" lon="6.62579">
        <ele>1695</ele>
        <time>2020-03-24T13:11:30.387Z</time>
      </trkpt>
      <trkpt lat="44.22047" lon="6.62582">
        <ele>1694</ele>
        <time>2020-03-24T13:11:31.387Z</time>
      </trkpt>
      <trkpt lat="44.22023" lon="6.6259">
        <ele>1692</ele>
        <time>2020-03-24T13:11:32.387Z</time>
      </trkpt>
      <trkpt lat="44.22006" lon="6.62589">
        <ele>1693</ele>
        <time>2020-03-24T13:11:33.387Z</time>
      </trkpt>
      <trkpt lat="44.21981" lon="6.62597">
        <ele>1691</ele>
        <time>2020-03-24T13:11:34.387Z</time>
      </trkpt>
      <trkpt lat="44.21977" lon="6.62601">
        <ele>1690</ele>
        <time>2020-03-24T13:11:35.387Z</time>
      </trkpt>
      <trkpt lat="44.21967" lon="6.62605">
        <ele>1688</ele>
        <time>2020-03-24T13:11:36.387Z</time>
      </trkpt>
      <trkpt lat="44.21939" lon="6.62606">
        <ele>1688</ele>
        <time>2020-03-24T13:11:37.387Z</time>
      </trkpt>
      <trkpt lat="44.21925" lon="6.62606">
        <ele>1688</ele>
        <time>2020-03-24T13:11:38.387Z</time>
      </trkpt>
      <trkpt lat="44.21905" lon="6.62612">
        <ele>1687</ele>
        <time>2020-03-24T13:11:39.387Z</time>
      </trkpt>
      <trkpt lat="44.219" lon="6.62612">
        <ele>1688</ele>
        <time>2020-03-24T13:11:40.387Z</time>
      </trkpt>
      <trkpt lat="44.21899" lon="6.62613">
        <ele>1687</ele>
        <time>2020-03-24T13:11:41.387Z</time>
      </trkpt>
      <trkpt lat="44.21896" lon="6.62614">
        <ele>1687</ele>
        <time>2020-03-24T13:11:42.387Z</time>
      </trkpt>
      <trkpt lat="44.21881" lon="6.62623">
        <ele>1686</ele>
        <time>2020-03-24T13:11:43.387Z</time>
      </trkpt>
      <trkpt lat="44.21871" lon="6.6263">
        <ele>1685</ele>
        <time>2020-03-24T13:11:44.387Z</time>
      </trkpt>
      <trkpt lat="44.21852" lon="6.62642">
        <ele>1683</ele>
        <time>2020-03-24T13:11:45.387Z</time>
      </trkpt>
      <trkpt lat="44.21833" lon="6.6265">
        <ele>1682</ele>
        <time>2020-03-24T13:11:46.387Z</time>
      </trkpt>
      <trkpt lat="44.2182" lon="6.62659">
        <ele>1680</ele>
        <time>2020-03-24T13:11:47.387Z</time>
      </trkpt>
      <trkpt lat="44.21805" lon="6.62666">
        <ele>1679</ele>
        <time>2020-03-24T13:11:48.387Z</time>
      </trkpt>
      <trkpt lat="44.21785" lon="6.62679">
        <ele>1676</ele>
        <time>2020-03-24T13:11:49.387Z</time>
      </trkpt>
      <trkpt lat="44.21765" lon="6.62684">
        <ele>1676</ele>
        <time>2020-03-24T13:11:50.387Z</time>
      </trkpt>
      <trkpt lat="44.21755" lon="6.62688">
        <ele>1675</ele>
        <time>2020-03-24T13:11:51.387Z</time>
      </trkpt>
      <trkpt lat="44.21738" lon="6.6269">
        <ele>1674</ele>
        <time>2020-03-24T13:11:52.387Z</time>
      </trkpt>
      <trkpt lat="44.2172" lon="6.62689">
        <ele>1672</ele>
        <time>2020-03-24T13:11:53.387Z</time>
      </trkpt>
      <trkpt lat="44.21717" lon="6.62688">
        <ele>1672</ele>
        <time>2020-03-24T13:11:54.387Z</time>
      </trkpt>
      <trkpt lat="44.21704" lon="6.62671">
        <ele>1676</ele>
        <time>2020-03-24T13:11:55.387Z</time>
      </trkpt>
      <trkpt lat="44.21701" lon="6.62666">
        <ele>1677</ele>
        <time>2020-03-24T13:11:56.387Z</time>
      </trkpt>
      <trkpt lat="44.21697" lon="6.62654">
        <ele>1680</ele>
        <time>2020-03-24T13:11:57.387Z</time>
      </trkpt>
      <trkpt lat="44.21688" lon="6.62635">
        <ele>1684</ele>
        <time>2020-03-24T13:11:58.387Z</time>
      </trkpt>
      <trkpt lat="44.21677" lon="6.62635">
        <ele>1683</ele>
        <time>2020-03-24T13:11:59.387Z</time>
      </trkpt>
      <trkpt lat="44.21674" lon="6.62637">
        <ele>1682</ele>
        <time>2020-03-24T13:12:00.387Z</time>
      </trkpt>
      <trkpt lat="44.21665" lon="6.62642">
        <ele>1680</ele>
        <time>2020-03-24T13:12:01.387Z</time>
      </trkpt>
      <trkpt lat="44.21654" lon="6.62651">
        <ele>1679</ele>
        <time>2020-03-24T13:12:02.387Z</time>
      </trkpt>
      <trkpt lat="44.21639" lon="6.62659">
        <ele>1678</ele>
        <time>2020-03-24T13:12:03.387Z</time>
      </trkpt>
      <trkpt lat="44.21629" lon="6.62672">
        <ele>1676</ele>
        <time>2020-03-24T13:12:04.387Z</time>
      </trkpt>
      <trkpt lat="44.21614" lon="6.62682">
        <ele>1675</ele>
        <time>2020-03-24T13:12:05.387Z</time>
      </trkpt>
      <trkpt lat="44.21592" lon="6.62699">
        <ele>1673</ele>
        <time>2020-03-24T13:12:06.387Z</time>
      </trkpt>
      <trkpt lat="44.21574" lon="6.62709">
        <ele>1672</ele>
        <time>2020-03-24T13:12:07.387Z</time>
      </trkpt>
      <trkpt lat="44.21564" lon="6.62712">
        <ele>1671</ele>
        <time>2020-03-24T13:12:08.387Z</time>
      </trkpt>
      <trkpt lat="44.21542" lon="6.62721">
        <ele>1669</ele>
        <time>2020-03-24T13:12:09.387Z</time>
      </trkpt>
      <trkpt lat="44.21534" lon="6.62725">
        <ele>1668</ele>
        <time>2020-03-24T13:12:10.387Z</time>
      </trkpt>
      <trkpt lat="44.21525" lon="6.62729">
        <ele>1667</ele>
        <time>2020-03-24T13:12:11.387Z</time>
      </trkpt>
      <trkpt lat="44.21504" lon="6.62727">
        <ele>1668</ele>
        <time>2020-03-24T13:12:12.387Z</time>
      </trkpt>
      <trkpt lat="44.21498" lon="6.62725">
        <ele>1669</ele>
        <time>2020-03-24T13:12:13.387Z</time>
      </trkpt>
      <trkpt lat="44.21484" lon="6.62726">
        <ele>1668</ele>
        <time>2020-03-24T13:12:14.387Z</time>
      </trkpt>
      <trkpt lat="44.21475" lon="6.62726">
        <ele>1667</ele>
        <time>2020-03-24T13:12:15.387Z</time>
      </trkpt>
      <trkpt lat="44.21455" lon="6.62728">
        <ele>1666</ele>
        <time>2020-03-24T13:12:16.387Z</time>
      </trkpt>
      <trkpt lat="44.21445" lon="6.62731">
        <ele>1664</ele>
        <time>2020-03-24T13:12:17.387Z</time>
      </trkpt>
      <trkpt lat="44.21432" lon="6.62734">
        <ele>1662</ele>
        <time>2020-03-24T13:12:18.387Z</time>
      </trkpt>
      <trkpt lat="44.21418" lon="6.62731">
        <ele>1663</ele>
        <time>2020-03-24T13:12:19.387Z</time>
      </trkpt>
      <trkpt lat="44.21392" lon="6.62721">
        <ele>1665</ele>
        <time>2020-03-24T13:12:20.387Z</time>
      </trkpt>
      <trkpt lat="44.21379" lon="6.62716">
        <ele>1666</ele>
        <time>2020-03-24T13:12:21.387Z</time>
      </trkpt>
      <trkpt lat="44.21359" lon="6.62718">
        <ele>1664</ele>
        <time>2020-03-24T13:12:22.387Z</time>
      </trkpt>
      <trkpt lat="44.21336" lon="6.6272">
        <ele>1662</ele>
        <time>2020-03-24T13:12:23.387Z</time>
      </trkpt>
      <trkpt lat="44.21313" lon="6.62726">
        <ele>1658</ele>
        <time>2020-03-24T13:12:24.387Z</time>
      </trkpt>
      <trkpt lat="44.21296" lon="6.62725">
        <ele>1656</ele>
        <time>2020-03-24T13:12:25.387Z</time>
      </trkpt>
      <trkpt lat="44.2128" lon="6.62718">
        <ele>1657</ele>
        <time>2020-03-24T13:12:26.387Z</time>
      </trkpt>
      <trkpt lat="44.21262" lon="6.62707">
        <ele>1659</ele>
        <time>2020-03-24T13:12:27.387Z</time>
      </trkpt>
      <trkpt lat="44.21247" lon="6.62701">
        <ele>1660</ele>
        <time>2020-03-24T13:12:28.387Z</time>
      </trkpt>
      <trkpt lat="44.21244" lon="6.627">
        <ele>1661</ele>
        <time>2020-03-24T13:12:29.387Z</time>
      </trkpt>
      <trkpt lat="44.2124" lon="6.62703">
        <ele>1660</ele>
        <time>2020-03-24T13:12:30.387Z</time>
      </trkpt>
      <trkpt lat="44.21247" lon="6.6271">
        <ele>1657</ele>
        <time>2020-03-24T13:12:31.387Z</time>
      </trkpt>
      <trkpt lat="44.21262" lon="6.62727">
        <ele>1653</ele>
        <time>2020-03-24T13:12:32.387Z</time>
      </trkpt>
      <trkpt lat="44.21277" lon="6.62752">
        <ele>1645</ele>
        <time>2020-03-24T13:12:33.387Z</time>
      </trkpt>
      <trkpt lat="44.21288" lon="6.62765">
        <ele>1643</ele>
        <time>2020-03-24T13:12:34.387Z</time>
      </trkpt>
      <trkpt lat="44.21293" lon="6.62768">
        <ele>1643</ele>
        <time>2020-03-24T13:12:35.387Z</time>
      </trkpt>
      <trkpt lat="44.21295" lon="6.6277">
        <ele>1642</ele>
        <time>2020-03-24T13:12:36.387Z</time>
      </trkpt>
      <trkpt lat="44.21292" lon="6.62776">
        <ele>1641</ele>
        <time>2020-03-24T13:12:37.387Z</time>
      </trkpt>
      <trkpt lat="44.21289" lon="6.62775">
        <ele>1641</ele>
        <time>2020-03-24T13:12:38.387Z</time>
      </trkpt>
      <trkpt lat="44.21283" lon="6.62773">
        <ele>1641</ele>
        <time>2020-03-24T13:12:39.387Z</time>
      </trkpt>
      <trkpt lat="44.21274" lon="6.62769">
        <ele>1641</ele>
        <time>2020-03-24T13:12:40.387Z</time>
      </trkpt>
      <trkpt lat="44.21261" lon="6.62761">
        <ele>1642</ele>
        <time>2020-03-24T13:12:41.387Z</time>
      </trkpt>
      <trkpt lat="44.21257" lon="6.62759">
        <ele>1643</ele>
        <time>2020-03-24T13:12:42.387Z</time>
      </trkpt>
      <trkpt lat="44.2125" lon="6.62756">
        <ele>1643</ele>
        <time>2020-03-24T13:12:43.387Z</time>
      </trkpt>
      <trkpt lat="44.21247" lon="6.62765">
        <ele>1641</ele>
        <time>2020-03-24T13:12:44.387Z</time>
      </trkpt>
      <trkpt lat="44.21247" lon="6.62768">
        <ele>1641</ele>
        <time>2020-03-24T13:12:45.387Z</time>
      </trkpt>
      <trkpt lat="44.2125" lon="6.62784">
        <ele>1637</ele>
        <time>2020-03-24T13:12:46.387Z</time>
      </trkpt>
      <trkpt lat="44.21251" lon="6.62798">
        <ele>1634</ele>
        <time>2020-03-24T13:12:47.387Z</time>
      </trkpt>
      <trkpt lat="44.21257" lon="6.62825">
        <ele>1629</ele>
        <time>2020-03-24T13:12:48.387Z</time>
      </trkpt>
      <trkpt lat="44.21258" lon="6.6286">
        <ele>1622</ele>
        <time>2020-03-24T13:12:49.387Z</time>
      </trkpt>
      <trkpt lat="44.21257" lon="6.62868">
        <ele>1621</ele>
        <time>2020-03-24T13:12:50.387Z</time>
      </trkpt>
      <trkpt lat="44.21237" lon="6.62911">
        <ele>1614</ele>
        <time>2020-03-24T13:12:51.387Z</time>
      </trkpt>
      <trkpt lat="44.21218" lon="6.62946">
        <ele>1608</ele>
        <time>2020-03-24T13:12:52.387Z</time>
      </trkpt>
      <trkpt lat="44.21214" lon="6.62956">
        <ele>1606</ele>
        <time>2020-03-24T13:12:53.387Z</time>
      </trkpt>
      <trkpt lat="44.21196" lon="6.63009">
        <ele>1597</ele>
        <time>2020-03-24T13:12:54.387Z</time>
      </trkpt>
      <trkpt lat="44.21194" lon="6.6303">
        <ele>1590</ele>
        <time>2020-03-24T13:12:55.387Z</time>
      </trkpt>
      <trkpt lat="44.21194" lon="6.63033">
        <ele>1590</ele>
        <time>2020-03-24T13:12:56.387Z</time>
      </trkpt>
      <trkpt lat="44.21196" lon="6.63031">
        <ele>1590</ele>
        <time>2020-03-24T13:12:57.387Z</time>
      </trkpt>
      <trkpt lat="44.21197" lon="6.6303">
        <ele>1590</ele>
        <time>2020-03-24T13:12:58.387Z</time>
      </trkpt>
      <trkpt lat="44.21193" lon="6.63039">
        <ele>1588</ele>
        <time>2020-03-24T13:12:59.387Z</time>
      </trkpt>
      <trkpt lat="44.21188" lon="6.63047">
        <ele>1586</ele>
        <time>2020-03-24T13:13:00.387Z</time>
      </trkpt>
      <trkpt lat="44.21176" lon="6.63054">
        <ele>1586</ele>
        <time>2020-03-24T13:13:01.387Z</time>
      </trkpt>
      <trkpt lat="44.21158" lon="6.63066">
        <ele>1584</ele>
        <time>2020-03-24T13:13:02.387Z</time>
      </trkpt>
      <trkpt lat="44.21153" lon="6.63068">
        <ele>1582</ele>
        <time>2020-03-24T13:13:03.387Z</time>
      </trkpt>
      <trkpt lat="44.21133" lon="6.63081">
        <ele>1577</ele>
        <time>2020-03-24T13:13:04.387Z</time>
      </trkpt>
      <trkpt lat="44.21113" lon="6.63086">
        <ele>1574</ele>
        <time>2020-03-24T13:13:05.387Z</time>
      </trkpt>
      <trkpt lat="44.21093" lon="6.63083">
        <ele>1575</ele>
        <time>2020-03-24T13:13:06.387Z</time>
      </trkpt>
      <trkpt lat="44.21085" lon="6.63087">
        <ele>1572</ele>
        <time>2020-03-24T13:13:07.387Z</time>
      </trkpt>
      <trkpt lat="44.21068" lon="6.63096">
        <ele>1562</ele>
        <time>2020-03-24T13:13:08.387Z</time>
      </trkpt>
      <trkpt lat="44.21049" lon="6.63098">
        <ele>1555</ele>
        <time>2020-03-24T13:13:09.387Z</time>
      </trkpt>
      <trkpt lat="44.21046" lon="6.63098">
        <ele>1554</ele>
        <time>2020-03-24T13:13:10.387Z</time>
      </trkpt>
      <trkpt lat="44.2105" lon="6.63106">
        <ele>1552</ele>
        <time>2020-03-24T13:13:11.387Z</time>
      </trkpt>
      <trkpt lat="44.21056" lon="6.63115">
        <ele>1549</ele>
        <time>2020-03-24T13:13:12.387Z</time>
      </trkpt>
      <trkpt lat="44.21072" lon="6.6312">
        <ele>1552</ele>
        <time>2020-03-24T13:13:13.387Z</time>
      </trkpt>
      <trkpt lat="44.21076" lon="6.63121">
        <ele>1553</ele>
        <time>2020-03-24T13:13:14.387Z</time>
      </trkpt>
      <trkpt lat="44.21068" lon="6.63131">
        <ele>1546</ele>
        <time>2020-03-24T13:13:15.387Z</time>
      </trkpt>
      <trkpt lat="44.21048" lon="6.63134">
        <ele>1538</ele>
        <time>2020-03-24T13:13:16.387Z</time>
      </trkpt>
      <trkpt lat="44.21034" lon="6.6313">
        <ele>1536</ele>
        <time>2020-03-24T13:13:17.387Z</time>
      </trkpt>
      <trkpt lat="44.21024" lon="6.63127">
        <ele>1534</ele>
        <time>2020-03-24T13:13:18.387Z</time>
      </trkpt>
      <trkpt lat="44.21015" lon="6.63125">
        <ele>1532</ele>
        <time>2020-03-24T13:13:19.387Z</time>
      </trkpt>
      <trkpt lat="44.20997" lon="6.63117">
        <ele>1530</ele>
        <time>2020-03-24T13:13:20.387Z</time>
      </trkpt>
      <trkpt lat="44.20985" lon="6.63111">
        <ele>1527</ele>
        <time>2020-03-24T13:13:21.387Z</time>
      </trkpt>
      <trkpt lat="44.20972" lon="6.63106">
        <ele>1524</ele>
        <time>2020-03-24T13:13:22.387Z</time>
      </trkpt>
      <trkpt lat="44.20962" lon="6.63096">
        <ele>1524</ele>
        <time>2020-03-24T13:13:23.387Z</time>
      </trkpt>
      <trkpt lat="44.20958" lon="6.63099">
        <ele>1521</ele>
        <time>2020-03-24T13:13:24.387Z</time>
      </trkpt>
      <trkpt lat="44.20961" lon="6.63113">
        <ele>1517</ele>
        <time>2020-03-24T13:13:25.387Z</time>
      </trkpt>
      <trkpt lat="44.20963" lon="6.63117">
        <ele>1516</ele>
        <time>2020-03-24T13:13:26.387Z</time>
      </trkpt>
      <trkpt lat="44.20957" lon="6.63117">
        <ele>1514</ele>
        <time>2020-03-24T13:13:27.387Z</time>
      </trkpt>
      <trkpt lat="44.20954" lon="6.63113">
        <ele>1514</ele>
        <time>2020-03-24T13:13:28.387Z</time>
      </trkpt>
      <trkpt lat="44.20948" lon="6.63101">
        <ele>1516</ele>
        <time>2020-03-24T13:13:29.387Z</time>
      </trkpt>
      <trkpt lat="44.20945" lon="6.63089">
        <ele>1519</ele>
        <time>2020-03-24T13:13:30.387Z</time>
      </trkpt>
      <trkpt lat="44.20935" lon="6.63088">
        <ele>1515</ele>
        <time>2020-03-24T13:13:31.387Z</time>
      </trkpt>
      <trkpt lat="44.20927" lon="6.63091">
        <ele>1511</ele>
        <time>2020-03-24T13:13:32.387Z</time>
      </trkpt>
      <trkpt lat="44.20916" lon="6.63092">
        <ele>1505</ele>
        <time>2020-03-24T13:13:33.387Z</time>
      </trkpt>
      <trkpt lat="44.20905" lon="6.63092">
        <ele>1501</ele>
        <time>2020-03-24T13:13:34.387Z</time>
      </trkpt>
      <trkpt lat="44.20896" lon="6.63089">
        <ele>1499</ele>
        <time>2020-03-24T13:13:35.387Z</time>
      </trkpt>
      <trkpt lat="44.20881" lon="6.63091">
        <ele>1493</ele>
        <time>2020-03-24T13:13:36.387Z</time>
      </trkpt>
      <trkpt lat="44.20871" lon="6.63089">
        <ele>1489</ele>
        <time>2020-03-24T13:13:37.387Z</time>
      </trkpt>
      <trkpt lat="44.20849" lon="6.63089">
        <ele>1481</ele>
        <time>2020-03-24T13:13:38.387Z</time>
      </trkpt>
      <trkpt lat="44.20833" lon="6.63083">
        <ele>1477</ele>
        <time>2020-03-24T13:13:39.387Z</time>
      </trkpt>
      <trkpt lat="44.2082" lon="6.63082">
        <ele>1474</ele>
        <time>2020-03-24T13:13:40.387Z</time>
      </trkpt>
      <trkpt lat="44.20798" lon="6.63076">
        <ele>1471</ele>
        <time>2020-03-24T13:13:41.387Z</time>
      </trkpt>
      <trkpt lat="44.20793" lon="6.63076">
        <ele>1469</ele>
        <time>2020-03-24T13:13:42.387Z</time>
      </trkpt>
      <trkpt lat="44.20784" lon="6.63079">
        <ele>1466</ele>
        <time>2020-03-24T13:13:43.387Z</time>
      </trkpt>
      <trkpt lat="44.20769" lon="6.6308">
        <ele>1462</ele>
        <time>2020-03-24T13:13:44.387Z</time>
      </trkpt>
      <trkpt lat="44.20753" lon="6.63078">
        <ele>1458</ele>
        <time>2020-03-24T13:13:45.387Z</time>
      </trkpt>
      <trkpt lat="44.2074" lon="6.63076">
        <ele>1456</ele>
        <time>2020-03-24T13:13:46.387Z</time>
      </trkpt>
      <trkpt lat="44.2072" lon="6.63076">
        <ele>1451</ele>
        <time>2020-03-24T13:13:47.387Z</time>
      </trkpt>
      <trkpt lat="44.20706" lon="6.63082">
        <ele>1446</ele>
        <time>2020-03-24T13:13:48.387Z</time>
      </trkpt>
      <trkpt lat="44.20701" lon="6.63084">
        <ele>1445</ele>
        <time>2020-03-24T13:13:49.387Z</time>
      </trkpt>
      <trkpt lat="44.20697" lon="6.63087">
        <ele>1443</ele>
        <time>2020-03-24T13:13:50.387Z</time>
      </trkpt>
      <trkpt lat="44.20696" lon="6.63089">
        <ele>1443</ele>
        <time>2020-03-24T13:13:51.387Z</time>
      </trkpt>
      <trkpt lat="44.2069" lon="6.631">
        <ele>1439</ele>
        <time>2020-03-24T13:13:52.387Z</time>
      </trkpt>
      <trkpt lat="44.20683" lon="6.63094">
        <ele>1439</ele>
        <time>2020-03-24T13:13:53.387Z</time>
      </trkpt>
      <trkpt lat="44.20671" lon="6.63089">
        <ele>1437</ele>
        <time>2020-03-24T13:13:54.387Z</time>
      </trkpt>
      <trkpt lat="44.20666" lon="6.63084">
        <ele>1437</ele>
        <time>2020-03-24T13:13:55.387Z</time>
      </trkpt>
      <trkpt lat="44.20663" lon="6.63084">
        <ele>1436</ele>
        <time>2020-03-24T13:13:56.387Z</time>
      </trkpt>
      <trkpt lat="44.20658" lon="6.63081">
        <ele>1435</ele>
        <time>2020-03-24T13:13:57.387Z</time>
      </trkpt>
      <trkpt lat="44.20653" lon="6.63074">
        <ele>1435</ele>
        <time>2020-03-24T13:13:58.387Z</time>
      </trkpt>
      <trkpt lat="44.2065" lon="6.63073">
        <ele>1434</ele>
        <time>2020-03-24T13:13:59.387Z</time>
      </trkpt>
      <trkpt lat="44.2064" lon="6.6306">
        <ele>1434</ele>
        <time>2020-03-24T13:14:00.387Z</time>
      </trkpt>
      <trkpt lat="44.20634" lon="6.63043">
        <ele>1435</ele>
        <time>2020-03-24T13:14:01.387Z</time>
      </trkpt>
      <trkpt lat="44.2063" lon="6.63023">
        <ele>1438</ele>
        <time>2020-03-24T13:14:02.387Z</time>
      </trkpt>
      <trkpt lat="44.2063" lon="6.63016">
        <ele>1439</ele>
        <time>2020-03-24T13:14:03.387Z</time>
      </trkpt>
      <trkpt lat="44.20632" lon="6.63">
        <ele>1443</ele>
        <time>2020-03-24T13:14:04.387Z</time>
      </trkpt>
      <trkpt lat="44.20624" lon="6.63001">
        <ele>1441</ele>
        <time>2020-03-24T13:14:05.387Z</time>
      </trkpt>
      <trkpt lat="44.20619" lon="6.63003">
        <ele>1439</ele>
        <time>2020-03-24T13:14:06.387Z</time>
      </trkpt>
      <trkpt lat="44.20611" lon="6.63002">
        <ele>1437</ele>
        <time>2020-03-24T13:14:07.387Z</time>
      </trkpt>
      <trkpt lat="44.2061" lon="6.63002">
        <ele>1437</ele>
        <time>2020-03-24T13:14:08.387Z</time>
      </trkpt>
      <trkpt lat="44.20611" lon="6.63002">
        <ele>1437</ele>
        <time>2020-03-24T13:14:09.387Z</time>
      </trkpt>
      <trkpt lat="44.2061" lon="6.63">
        <ele>1437</ele>
        <time>2020-03-24T13:14:10.387Z</time>
      </trkpt>
      <trkpt lat="44.20609" lon="6.63">
        <ele>1437</ele>
        <time>2020-03-24T13:14:11.387Z</time>
      </trkpt>
      <trkpt lat="44.20601" lon="6.62995">
        <ele>1436</ele>
        <time>2020-03-24T13:14:12.387Z</time>
      </trkpt>
      <trkpt lat="44.20598" lon="6.62993">
        <ele>1436</ele>
        <time>2020-03-24T13:14:13.387Z</time>
      </trkpt>
      <trkpt lat="44.20582" lon="6.62975">
        <ele>1436</ele>
        <time>2020-03-24T13:14:14.387Z</time>
      </trkpt>
      <trkpt lat="44.20569" lon="6.62955">
        <ele>1436</ele>
        <time>2020-03-24T13:14:15.387Z</time>
      </trkpt>
      <trkpt lat="44.20563" lon="6.62945">
        <ele>1436</ele>
        <time>2020-03-24T13:14:16.387Z</time>
      </trkpt>
      <trkpt lat="44.20555" lon="6.62945">
        <ele>1434</ele>
        <time>2020-03-24T13:14:17.387Z</time>
      </trkpt>
      <trkpt lat="44.20542" lon="6.62945">
        <ele>1429</ele>
        <time>2020-03-24T13:14:18.387Z</time>
      </trkpt>
      <trkpt lat="44.20536" lon="6.62946">
        <ele>1427</ele>
        <time>2020-03-24T13:14:19.387Z</time>
      </trkpt>
      <trkpt lat="44.20536" lon="6.62947">
        <ele>1427</ele>
        <time>2020-03-24T13:14:20.387Z</time>
      </trkpt>
      <trkpt lat="44.20534" lon="6.62951">
        <ele>1426</ele>
        <time>2020-03-24T13:14:21.387Z</time>
      </trkpt>
      <trkpt lat="44.20529" lon="6.62954">
        <ele>1424</ele>
        <time>2020-03-24T13:14:22.387Z</time>
      </trkpt>
      <trkpt lat="44.20525" lon="6.62969">
        <ele>1420</ele>
        <time>2020-03-24T13:14:23.387Z</time>
      </trkpt>
      <trkpt lat="44.20531" lon="6.62984">
        <ele>1419</ele>
        <time>2020-03-24T13:14:24.387Z</time>
      </trkpt>
      <trkpt lat="44.20537" lon="6.62995">
        <ele>1419</ele>
        <time>2020-03-24T13:14:25.387Z</time>
      </trkpt>
      <trkpt lat="44.20545" lon="6.63004">
        <ele>1419</ele>
        <time>2020-03-24T13:14:26.387Z</time>
      </trkpt>
      <trkpt lat="44.20569" lon="6.6304">
        <ele>1419</ele>
        <time>2020-03-24T13:14:27.387Z</time>
      </trkpt>
      <trkpt lat="44.20575" lon="6.63049">
        <ele>1418</ele>
        <time>2020-03-24T13:14:28.387Z</time>
      </trkpt>
      <trkpt lat="44.20581" lon="6.63058">
        <ele>1418</ele>
        <time>2020-03-24T13:14:29.387Z</time>
      </trkpt>
      <trkpt lat="44.20601" lon="6.63112">
        <ele>1413</ele>
        <time>2020-03-24T13:14:30.387Z</time>
      </trkpt>
      <trkpt lat="44.20618" lon="6.63187">
        <ele>1406</ele>
        <time>2020-03-24T13:14:31.387Z</time>
      </trkpt>
      <trkpt lat="44.20623" lon="6.63222">
        <ele>1402</ele>
        <time>2020-03-24T13:14:32.387Z</time>
      </trkpt>
      <trkpt lat="44.20616" lon="6.63251">
        <ele>1395</ele>
        <time>2020-03-24T13:14:33.387Z</time>
      </trkpt>
      <trkpt lat="44.20603" lon="6.63248">
        <ele>1392</ele>
        <time>2020-03-24T13:14:34.387Z</time>
      </trkpt>
      <trkpt lat="44.20597" lon="6.63242">
        <ele>1391</ele>
        <time>2020-03-24T13:14:35.387Z</time>
      </trkpt>
      <trkpt lat="44.20592" lon="6.63233">
        <ele>1391</ele>
        <time>2020-03-24T13:14:36.387Z</time>
      </trkpt>
      <trkpt lat="44.2056" lon="6.63171">
        <ele>1392</ele>
        <time>2020-03-24T13:14:37.387Z</time>
      </trkpt>
      <trkpt lat="44.20534" lon="6.63136">
        <ele>1392</ele>
        <time>2020-03-24T13:14:38.387Z</time>
      </trkpt>
      <trkpt lat="44.20511" lon="6.63126">
        <ele>1388</ele>
        <time>2020-03-24T13:14:39.387Z</time>
      </trkpt>
      <trkpt lat="44.20494" lon="6.63119">
        <ele>1386</ele>
        <time>2020-03-24T13:14:40.387Z</time>
      </trkpt>
      <trkpt lat="44.20461" lon="6.63099">
        <ele>1387</ele>
        <time>2020-03-24T13:14:41.387Z</time>
      </trkpt>
      <trkpt lat="44.20423" lon="6.63092">
        <ele>1385</ele>
        <time>2020-03-24T13:14:42.387Z</time>
      </trkpt>
      <trkpt lat="44.20402" lon="6.63088">
        <ele>1386</ele>
        <time>2020-03-24T13:14:43.387Z</time>
      </trkpt>
      <trkpt lat="44.20366" lon="6.631">
        <ele>1387</ele>
        <time>2020-03-24T13:14:44.387Z</time>
      </trkpt>
      <trkpt lat="44.20348" lon="6.63107">
        <ele>1387</ele>
        <time>2020-03-24T13:14:45.387Z</time>
      </trkpt>
      <trkpt lat="44.20295" lon="6.63141">
        <ele>1380</ele>
        <time>2020-03-24T13:14:46.387Z</time>
      </trkpt>
      <trkpt lat="44.20261" lon="6.63146">
        <ele>1379</ele>
        <time>2020-03-24T13:14:47.387Z</time>
      </trkpt>
      <trkpt lat="44.20222" lon="6.6314">
        <ele>1378</ele>
        <time>2020-03-24T13:14:48.387Z</time>
      </trkpt>
      <trkpt lat="44.20175" lon="6.63123">
        <ele>1377</ele>
        <time>2020-03-24T13:14:49.387Z</time>
      </trkpt>
      <trkpt lat="44.20159" lon="6.63117">
        <ele>1376</ele>
        <time>2020-03-24T13:14:50.387Z</time>
      </trkpt>
      <trkpt lat="44.20131" lon="6.63118">
        <ele>1373</ele>
        <time>2020-03-24T13:14:51.387Z</time>
      </trkpt>
      <trkpt lat="44.20119" lon="6.63123">
        <ele>1371</ele>
        <time>2020-03-24T13:14:52.387Z</time>
      </trkpt>
      <trkpt lat="44.20111" lon="6.63125">
        <ele>1370</ele>
        <time>2020-03-24T13:14:53.387Z</time>
      </trkpt>
      <trkpt lat="44.20108" lon="6.63131">
        <ele>1369</ele>
        <time>2020-03-24T13:14:54.387Z</time>
      </trkpt>
      <trkpt lat="44.20108" lon="6.63146">
        <ele>1367</ele>
        <time>2020-03-24T13:14:55.387Z</time>
      </trkpt>
      <trkpt lat="44.20105" lon="6.63183">
        <ele>1361</ele>
        <time>2020-03-24T13:14:56.387Z</time>
      </trkpt>
      <trkpt lat="44.20104" lon="6.6323">
        <ele>1355</ele>
        <time>2020-03-24T13:14:57.387Z</time>
      </trkpt>
      <trkpt lat="44.20116" lon="6.63269">
        <ele>1350</ele>
        <time>2020-03-24T13:14:58.387Z</time>
      </trkpt>
      <trkpt lat="44.20117" lon="6.63274">
        <ele>1349</ele>
        <time>2020-03-24T13:14:59.387Z</time>
      </trkpt>
      <trkpt lat="44.20107" lon="6.63283">
        <ele>1348</ele>
        <time>2020-03-24T13:15:00.387Z</time>
      </trkpt>
      <trkpt lat="44.20069" lon="6.6328">
        <ele>1347</ele>
        <time>2020-03-24T13:15:01.387Z</time>
      </trkpt>
      <trkpt lat="44.20064" lon="6.63279">
        <ele>1346</ele>
        <time>2020-03-24T13:15:02.387Z</time>
      </trkpt>
      <trkpt lat="44.20033" lon="6.63289">
        <ele>1344</ele>
        <time>2020-03-24T13:15:03.387Z</time>
      </trkpt>
      <trkpt lat="44.20019" lon="6.63294">
        <ele>1343</ele>
        <time>2020-03-24T13:15:04.387Z</time>
      </trkpt>
      <trkpt lat="44.19995" lon="6.63296">
        <ele>1342</ele>
        <time>2020-03-24T13:15:05.387Z</time>
      </trkpt>
      <trkpt lat="44.19957" lon="6.63304">
        <ele>1341</ele>
        <time>2020-03-24T13:15:06.387Z</time>
      </trkpt>
      <trkpt lat="44.19934" lon="6.6331">
        <ele>1340</ele>
        <time>2020-03-24T13:15:07.387Z</time>
      </trkpt>
      <trkpt lat="44.19914" lon="6.63317">
        <ele>1339</ele>
        <time>2020-03-24T13:15:08.387Z</time>
      </trkpt>
      <trkpt lat="44.199" lon="6.63327">
        <ele>1337</ele>
        <time>2020-03-24T13:15:09.387Z</time>
      </trkpt>
      <trkpt lat="44.19878" lon="6.63337">
        <ele>1334</ele>
        <time>2020-03-24T13:15:10.387Z</time>
      </trkpt>
      <trkpt lat="44.19837" lon="6.63348">
        <ele>1330</ele>
        <time>2020-03-24T13:15:11.387Z</time>
      </trkpt>
      <trkpt lat="44.19802" lon="6.63356">
        <ele>1326</ele>
        <time>2020-03-24T13:15:12.387Z</time>
      </trkpt>
      <trkpt lat="44.19779" lon="6.63353">
        <ele>1325</ele>
        <time>2020-03-24T13:15:13.387Z</time>
      </trkpt>
      <trkpt lat="44.19757" lon="6.63358">
        <ele>1323</ele>
        <time>2020-03-24T13:15:14.387Z</time>
      </trkpt>
      <trkpt lat="44.19739" lon="6.63362">
        <ele>1320</ele>
        <time>2020-03-24T13:15:15.387Z</time>
      </trkpt>
      <trkpt lat="44.19709" lon="6.63359">
        <ele>1317</ele>
        <time>2020-03-24T13:15:16.387Z</time>
      </trkpt>
      <trkpt lat="44.19677" lon="6.63361">
        <ele>1312</ele>
        <time>2020-03-24T13:15:17.387Z</time>
      </trkpt>
      <trkpt lat="44.19674" lon="6.63361">
        <ele>1311</ele>
        <time>2020-03-24T13:15:18.387Z</time>
      </trkpt>
      <trkpt lat="44.19671" lon="6.63361">
        <ele>1311</ele>
        <time>2020-03-24T13:15:19.387Z</time>
      </trkpt>
      <trkpt lat="44.19658" lon="6.6336">
        <ele>1309</ele>
        <time>2020-03-24T13:15:20.387Z</time>
      </trkpt>
      <trkpt lat="44.19643" lon="6.63349">
        <ele>1308</ele>
        <time>2020-03-24T13:15:21.387Z</time>
      </trkpt>
      <trkpt lat="44.19629" lon="6.63333">
        <ele>1308</ele>
        <time>2020-03-24T13:15:22.387Z</time>
      </trkpt>
      <trkpt lat="44.19602" lon="6.63308">
        <ele>1307</ele>
        <time>2020-03-24T13:15:23.387Z</time>
      </trkpt>
      <trkpt lat="44.19593" lon="6.63303">
        <ele>1306</ele>
        <time>2020-03-24T13:15:24.387Z</time>
      </trkpt>
      <trkpt lat="44.19574" lon="6.63293">
        <ele>1305</ele>
        <time>2020-03-24T13:15:25.387Z</time>
      </trkpt>
      <trkpt lat="44.1957" lon="6.63292">
        <ele>1304</ele>
        <time>2020-03-24T13:15:26.387Z</time>
      </trkpt>
      <trkpt lat="44.19555" lon="6.6328">
        <ele>1305</ele>
        <time>2020-03-24T13:15:27.387Z</time>
      </trkpt>
      <trkpt lat="44.19543" lon="6.63263">
        <ele>1307</ele>
        <time>2020-03-24T13:15:28.387Z</time>
      </trkpt>
      <trkpt lat="44.19539" lon="6.63259">
        <ele>1308</ele>
        <time>2020-03-24T13:15:29.387Z</time>
      </trkpt>
      <trkpt lat="44.19525" lon="6.63263">
        <ele>1306</ele>
        <time>2020-03-24T13:15:30.387Z</time>
      </trkpt>
      <trkpt lat="44.1951" lon="6.63259">
        <ele>1305</ele>
        <time>2020-03-24T13:15:31.387Z</time>
      </trkpt>
      <trkpt lat="44.195" lon="6.63249">
        <ele>1306</ele>
        <time>2020-03-24T13:15:32.387Z</time>
      </trkpt>
      <trkpt lat="44.19472" lon="6.6323">
        <ele>1305</ele>
        <time>2020-03-24T13:15:33.387Z</time>
      </trkpt>
      <trkpt lat="44.19445" lon="6.63218">
        <ele>1303</ele>
        <time>2020-03-24T13:15:34.387Z</time>
      </trkpt>
      <trkpt lat="44.19425" lon="6.63198">
        <ele>1305</ele>
        <time>2020-03-24T13:15:35.387Z</time>
      </trkpt>
      <trkpt lat="44.19399" lon="6.63183">
        <ele>1306</ele>
        <time>2020-03-24T13:15:36.387Z</time>
      </trkpt>
      <trkpt lat="44.1938" lon="6.63178">
        <ele>1305</ele>
        <time>2020-03-24T13:15:37.387Z</time>
      </trkpt>
      <trkpt lat="44.19359" lon="6.63182">
        <ele>1301</ele>
        <time>2020-03-24T13:15:38.387Z</time>
      </trkpt>
      <trkpt lat="44.19344" lon="6.6318">
        <ele>1299</ele>
        <time>2020-03-24T13:15:39.387Z</time>
      </trkpt>
      <trkpt lat="44.19328" lon="6.63175">
        <ele>1299</ele>
        <time>2020-03-24T13:15:40.387Z</time>
      </trkpt>
      <trkpt lat="44.19309" lon="6.63184">
        <ele>1295</ele>
        <time>2020-03-24T13:15:41.387Z</time>
      </trkpt>
      <trkpt lat="44.19297" lon="6.63177">
        <ele>1296</ele>
        <time>2020-03-24T13:15:42.387Z</time>
      </trkpt>
      <trkpt lat="44.19278" lon="6.63174">
        <ele>1295</ele>
        <time>2020-03-24T13:15:43.387Z</time>
      </trkpt>
      <trkpt lat="44.19265" lon="6.63176">
        <ele>1294</ele>
        <time>2020-03-24T13:15:44.387Z</time>
      </trkpt>
      <trkpt lat="44.19236" lon="6.6318">
        <ele>1292</ele>
        <time>2020-03-24T13:15:45.387Z</time>
      </trkpt>
      <trkpt lat="44.19223" lon="6.63179">
        <ele>1292</ele>
        <time>2020-03-24T13:15:46.387Z</time>
      </trkpt>
      <trkpt lat="44.19205" lon="6.63185">
        <ele>1290</ele>
        <time>2020-03-24T13:15:47.387Z</time>
      </trkpt>
      <trkpt lat="44.19199" lon="6.63184">
        <ele>1290</ele>
        <time>2020-03-24T13:15:48.387Z</time>
      </trkpt>
      <trkpt lat="44.19188" lon="6.63182">
        <ele>1290</ele>
        <time>2020-03-24T13:15:49.387Z</time>
      </trkpt>
      <trkpt lat="44.19171" lon="6.63175">
        <ele>1290</ele>
        <time>2020-03-24T13:15:50.387Z</time>
      </trkpt>
      <trkpt lat="44.1913" lon="6.63167">
        <ele>1295</ele>
        <time>2020-03-24T13:15:51.387Z</time>
      </trkpt>
      <trkpt lat="44.19101" lon="6.63169">
        <ele>1297</ele>
        <time>2020-03-24T13:15:52.387Z</time>
      </trkpt>
      <trkpt lat="44.19074" lon="6.63176">
        <ele>1299</ele>
        <time>2020-03-24T13:15:53.387Z</time>
      </trkpt>
      <trkpt lat="44.19062" lon="6.63184">
        <ele>1299</ele>
        <time>2020-03-24T13:15:54.387Z</time>
      </trkpt>
      <trkpt lat="44.19046" lon="6.63197">
        <ele>1299</ele>
        <time>2020-03-24T13:15:55.387Z</time>
      </trkpt>
      <trkpt lat="44.19038" lon="6.63201">
        <ele>1299</ele>
        <time>2020-03-24T13:15:56.387Z</time>
      </trkpt>
      <trkpt lat="44.19023" lon="6.63212">
        <ele>1299</ele>
        <time>2020-03-24T13:15:57.387Z</time>
      </trkpt>
      <trkpt lat="44.19003" lon="6.63225">
        <ele>1298</ele>
        <time>2020-03-24T13:15:58.387Z</time>
      </trkpt>
      <trkpt lat="44.18986" lon="6.63233">
        <ele>1298</ele>
        <time>2020-03-24T13:15:59.387Z</time>
      </trkpt>
      <trkpt lat="44.18963" lon="6.63245">
        <ele>1297</ele>
        <time>2020-03-24T13:16:00.387Z</time>
      </trkpt>
      <trkpt lat="44.18956" lon="6.63248">
        <ele>1297</ele>
        <time>2020-03-24T13:16:01.387Z</time>
      </trkpt>
      <trkpt lat="44.18929" lon="6.63266">
        <ele>1296</ele>
        <time>2020-03-24T13:16:02.387Z</time>
      </trkpt>
      <trkpt lat="44.18905" lon="6.63283">
        <ele>1290</ele>
        <time>2020-03-24T13:16:03.387Z</time>
      </trkpt>
      <trkpt lat="44.18886" lon="6.63286">
        <ele>1287</ele>
        <time>2020-03-24T13:16:04.387Z</time>
      </trkpt>
      <trkpt lat="44.18865" lon="6.63277">
        <ele>1286</ele>
        <time>2020-03-24T13:16:05.387Z</time>
      </trkpt>
      <trkpt lat="44.18851" lon="6.63263">
        <ele>1286</ele>
        <time>2020-03-24T13:16:06.387Z</time>
      </trkpt>
      <trkpt lat="44.18828" lon="6.63237">
        <ele>1288</ele>
        <time>2020-03-24T13:16:07.387Z</time>
      </trkpt>
      <trkpt lat="44.18809" lon="6.63212">
        <ele>1289</ele>
        <time>2020-03-24T13:16:08.387Z</time>
      </trkpt>
      <trkpt lat="44.18772" lon="6.6317">
        <ele>1289</ele>
        <time>2020-03-24T13:16:09.387Z</time>
      </trkpt>
      <trkpt lat="44.18767" lon="6.63164">
        <ele>1290</ele>
        <time>2020-03-24T13:16:10.387Z</time>
      </trkpt>
      <trkpt lat="44.18755" lon="6.63156">
        <ele>1290</ele>
        <time>2020-03-24T13:16:11.387Z</time>
      </trkpt>
      <trkpt lat="44.18731" lon="6.63129">
        <ele>1299</ele>
        <time>2020-03-24T13:16:12.387Z</time>
      </trkpt>
      <trkpt lat="44.18725" lon="6.63122">
        <ele>1303</ele>
        <time>2020-03-24T13:16:13.387Z</time>
      </trkpt>
      <trkpt lat="44.18723" lon="6.63123">
        <ele>1302</ele>
        <time>2020-03-24T13:16:14.387Z</time>
      </trkpt>
      <trkpt lat="44.187" lon="6.63135">
        <ele>1294</ele>
        <time>2020-03-24T13:16:15.387Z</time>
      </trkpt>
      <trkpt lat="44.18688" lon="6.63142">
        <ele>1290</ele>
        <time>2020-03-24T13:16:16.387Z</time>
      </trkpt>
      <trkpt lat="44.18676" lon="6.63146">
        <ele>1286</ele>
        <time>2020-03-24T13:16:17.387Z</time>
      </trkpt>
      <trkpt lat="44.18671" lon="6.63146">
        <ele>1286</ele>
        <time>2020-03-24T13:16:18.387Z</time>
      </trkpt>
      <trkpt lat="44.18667" lon="6.63142">
        <ele>1288</ele>
        <time>2020-03-24T13:16:19.387Z</time>
      </trkpt>
      <trkpt lat="44.18666" lon="6.63141">
        <ele>1288</ele>
        <time>2020-03-24T13:16:20.387Z</time>
      </trkpt>
      <trkpt lat="44.18666" lon="6.63142">
        <ele>1287</ele>
        <time>2020-03-24T13:16:21.387Z</time>
      </trkpt>
      <trkpt lat="44.18665" lon="6.63143">
        <ele>1287</ele>
        <time>2020-03-24T13:16:22.387Z</time>
      </trkpt>
      <trkpt lat="44.18663" lon="6.63158">
        <ele>1278</ele>
        <time>2020-03-24T13:16:23.387Z</time>
      </trkpt>
      <trkpt lat="44.18659" lon="6.6317">
        <ele>1272</ele>
        <time>2020-03-24T13:16:24.387Z</time>
      </trkpt>
      <trkpt lat="44.18653" lon="6.63174">
        <ele>1272</ele>
        <time>2020-03-24T13:16:25.387Z</time>
      </trkpt>
      <trkpt lat="44.18635" lon="6.63173">
        <ele>1271</ele>
        <time>2020-03-24T13:16:26.387Z</time>
      </trkpt>
      <trkpt lat="44.18617" lon="6.63166">
        <ele>1269</ele>
        <time>2020-03-24T13:16:27.387Z</time>
      </trkpt>
      <trkpt lat="44.18589" lon="6.63167">
        <ele>1267</ele>
        <time>2020-03-24T13:16:28.387Z</time>
      </trkpt>
      <trkpt lat="44.18551" lon="6.63175">
        <ele>1268</ele>
        <time>2020-03-24T13:16:29.387Z</time>
      </trkpt>
      <trkpt lat="44.18541" lon="6.63176">
        <ele>1268</ele>
        <time>2020-03-24T13:16:30.387Z</time>
      </trkpt>
      <trkpt lat="44.18507" lon="6.63173">
        <ele>1265</ele>
        <time>2020-03-24T13:16:31.387Z</time>
      </trkpt>
      <trkpt lat="44.18474" lon="6.63175">
        <ele>1269</ele>
        <time>2020-03-24T13:16:32.387Z</time>
      </trkpt>
      <trkpt lat="44.18443" lon="6.63174">
        <ele>1272</ele>
        <time>2020-03-24T13:16:33.387Z</time>
      </trkpt>
      <trkpt lat="44.18424" lon="6.63163">
        <ele>1271</ele>
        <time>2020-03-24T13:16:34.387Z</time>
      </trkpt>
      <trkpt lat="44.18414" lon="6.63153">
        <ele>1271</ele>
        <time>2020-03-24T13:16:35.387Z</time>
      </trkpt>
      <trkpt lat="44.18398" lon="6.63112">
        <ele>1268</ele>
        <time>2020-03-24T13:16:36.387Z</time>
      </trkpt>
      <trkpt lat="44.18385" lon="6.63071">
        <ele>1266</ele>
        <time>2020-03-24T13:16:37.387Z</time>
      </trkpt>
      <trkpt lat="44.18347" lon="6.62983">
        <ele>1267.1</ele>
      </trkpt>
      <trkpt lat="44.18253" lon="6.63047">
        <ele>1267.1</ele>
      </trkpt>
      <trkpt lat="44.18183" lon="6.63055">
        <ele>1264.1</ele>
      </trkpt>
      <trkpt lat="44.18157" lon="6.62989">
        <ele>1253.6</ele>
      </trkpt>
      <trkpt lat="44.18164" lon="6.6289">
        <ele>1246.5</ele>
      </trkpt>
      <trkpt lat="44.18215" lon="6.62816">
        <ele>1249.1</ele>
      </trkpt>
      <trkpt lat="44.18217" lon="6.62763">
        <ele>1248.8</ele>
      </trkpt>
      <trkpt lat="44.18145" lon="6.62765">
        <ele>1247.2</ele>
      </trkpt>
      <trkpt lat="44.18142" lon="6.62775">
        <ele>1247.1</ele>
      </trkpt>
      <trkpt lat="44.18131" lon="6.62774">
        <ele>1247</ele>
      </trkpt>
      <trkpt lat="44.18123" lon="6.6277">
        <ele>1247.1</ele>
      </trkpt>
      <trkpt lat="44.18122" lon="6.62769">
        <ele>1247.1</ele>
      </trkpt>
      <trkpt lat="44.1812" lon="6.62766">
        <ele>1247.1</ele>
      </trkpt>
      <trkpt lat="44.18117" lon="6.62763">
        <ele>1247.1</ele>
      </trkpt>
      <trkpt lat="44.18116" lon="6.62761">
        <ele>1247.2</ele>
      </trkpt>
      <trkpt lat="44.18116" lon="6.62759">
        <ele>1248</ele>
        <time>2020-03-24T13:17:40.610Z</time>
      </trkpt>
      <trkpt lat="44.18113" lon="6.62755">
        <ele>1248</ele>
        <time>2020-03-24T13:17:41.610Z</time>
      </trkpt>
      <trkpt lat="44.18105" lon="6.62745">
        <ele>1248</ele>
        <time>2020-03-24T13:17:42.610Z</time>
      </trkpt>
      <trkpt lat="44.18081" lon="6.62711">
        <ele>1246</ele>
        <time>2020-03-24T13:17:43.610Z</time>
      </trkpt>
      <trkpt lat="44.18071" lon="6.62686">
        <ele>1245</ele>
        <time>2020-03-24T13:17:44.610Z</time>
      </trkpt>
    </trkseg>
  </trk>
</gpx>